Data for 08/15/2010

Time Sea-Level Adjusted Pressure Absolute Pressure Temperature Relative Humidity Dew Point Precipitation   
(mb) (inHg) (mb) (inHg) (C) (F) (%) (C) (F) (mm) (in)
00:01 1028 30.36 857 25.31 9 48.2 87 6.9 44.5 9.38 0.369
00:02 1028 30.36 857 25.31 8.9 47.9 87 6.9 44.4 9.23 0.363
00:03 1028 30.36 857 25.31 8.6 47.6 88 6.8 44.2 9.07 0.357
00:04 1028 30.36 857 25.31 8.5 47.3 88 6.7 44.1 8.94 0.352
00:05 1028 30.36 857 25.31 8.4 47.2 89 6.8 44.2 8.81 0.347
00:06 1028 30.36 857 25.31 8.4 47.1 89 6.7 44.1 8.8 0.346
00:07 1028 30.36 857 25.31 8.3 47 89 6.7 44 8.71 0.343
00:08 1028 30.36 857 25.31 8.3 46.9 89 6.6 43.9 8.67 0.341
00:09 1028 30.36 857 25.31 8.3 46.9 90 6.7 44.1 8.64 0.34
00:10 1028 30.36 857 25.31 8.3 46.9 90 6.7 44 8.61 0.339
00:11 1028 30.36 857 25.31 8.2 46.8 89 6.6 43.9 8.59 0.338
00:12 1028 30.36 857 25.31 8.2 46.8 89 6.6 43.8 8.6 0.339
00:13 1028 30.36 857 25.31 8.2 46.8 89 6.6 43.8 8.54 0.336
00:14 1028 30.36 857 25.31 8.2 46.8 90 6.7 44 8.54 0.336
00:15 1028 30.36 857 25.31 8.2 46.8 90 6.6 43.9 8.61 0.339
00:16 1028 30.36 857 25.31 8.3 46.9 90 6.7 44 8.62 0.339
00:17 1028 30.36 857 25.31 8.3 47 89 6.7 44 8.64 0.34
00:18 1028 30.36 857 25.31 8.3 47 89 6.6 43.9 8.7 0.343
00:19 1028 30.36 857 25.31 8.3 47 88 6.5 43.7 8.61 0.339
00:20 1028 30.36 857 25.31 8.2 46.8 89 6.5 43.7 8.55 0.337
00:21 1028 30.36 857 25.31 8.2 46.7 90 6.6 43.9 8.52 0.335
00:22 1028 30.36 857 25.31 8.2 46.7 89 6.5 43.7 8.51 0.335
00:23 1028 30.36 857 25.31 8.1 46.6 89 6.5 43.6 8.45 0.333
00:24 1028 30.36 857 25.31 8 46.5 90 6.5 43.7 8.37 0.33
00:25 1028 30.36 857 25.31 8 46.4 90 6.4 43.5 8.32 0.328
00:26 1028 30.36 857 25.31 7.9 46.2 89 6.3 43.3 8.21 0.323
00:27 1028 30.36 857 25.31 7.8 46.1 91 6.4 43.5 8.15 0.321
00:28 1028 30.36 857 25.31 7.8 46 91 6.4 43.5 8.17 0.322
00:29 1028 30.36 857 25.31 7.8 46.1 90 6.4 43.4 8.18 0.322
00:30 1028 30.36 857 25.31 7.9 46.1 90 6.4 43.5 8.19 0.322
00:31 1028 30.36 857 25.31 8 46.3 91 6.5 43.7 8.26 0.325
00:32 1028 30.36 857 25.31 8 46.5 90 6.5 43.6 8.34 0.328
00:33 1028 30.36 857 25.31 8 46.5 89 6.4 43.4 8.37 0.33
00:34 1028 30.36 857 25.31 8 46.3 89 6.3 43.3 8.3 0.327
00:35 1028 30.36 857 25.31 7.9 46.2 90 6.3 43.3 8.18 0.322
00:36 1028 30.36 857 25.31 7.8 46 90 6.3 43.4 8.12 0.32
00:37 1028 30.36 857 25.31 7.8 46 90 6.3 43.3 8.12 0.32
00:38 1028 30.36 857 25.31 7.7 45.9 89 6.1 43 8.06 0.317
00:39 1028 30.36 857 25.31 7.6 45.7 90 6.1 42.9 7.94 0.313
00:40 1028 30.36 857 25.31 7.5 45.6 90 6.1 42.9 7.86 0.309
00:41 1028 30.36 857 25.31 7.5 45.4 91 6.1 43 7.84 0.309
00:42 1028 30.36 857 25.31 7.4 45.3 91 6 42.8 7.72 0.304
00:43 1028 30.36 857 25.31 7.4 45.3 92 6.1 43 7.73 0.304
00:44 1028 30.36 857 25.31 7.4 45.3 92 6.2 43.2 7.77 0.306
00:45 1028 30.36 857 25.31 7.5 45.6 91 6.2 43.1 7.88 0.31
00:46 1028 30.36 857 25.31 7.6 45.7 90 6.1 43 7.9 0.311
00:47 1028 30.36 857 25.31 7.6 45.6 91 6.1 43 7.92 0.312
00:48 1028 30.36 857 25.31 7.5 45.5 91 6.1 43 7.87 0.31
00:49 1028 30.36 857 25.31 7.5 45.5 91 6.2 43.1 7.84 0.309
00:50 1028 30.36 857 25.31 7.6 45.6 91 6.2 43.2 7.91 0.311
00:51 1028 30.36 857 25.31 7.6 45.6 91 6.2 43.1 7.92 0.312
00:52 1028 30.36 857 25.31 7.6 45.6 91 6.2 43.1 7.87 0.31
00:53 1028 30.36 857 25.31 7.5 45.6 91 6.1 43.1 7.84 0.309
00:54 1028 30.36 857 25.31 7.4 45.4 91 6.1 43 7.83 0.308
00:55 1028 30.36 857 25.31 7.5 45.4 91 6.2 43.1 7.83 0.308
00:56 1028 30.36 857 25.31 7.5 45.5 91 6.2 43.1 7.78 0.306
00:57 1028 30.36 857 25.31 7.6 45.6 91 6.2 43.1 7.9 0.311
00:58 1028 30.36 857 25.31 7.5 45.6 91 6.2 43.2 7.82 0.308
00:59 1028 30.36 857 25.31 7.6 45.6 91 6.3 43.3 7.84 0.309
01:00 1028 30.36 857 25.31 7.6 45.7 91 6.3 43.3 7.93 0.312
01:01 1028 30.36 857 25.31 7.7 45.8 91 6.2 43.2 7.97 0.314
01:02 1028 30.36 857 25.31 7.7 45.9 90 6.3 43.3 7.99 0.315
01:03 1028 30.36 857 25.31 7.8 46 90 6.2 43.1 8.06 0.317
01:04 1028 30.36 857 25.31 7.8 46 90 6.2 43.2 8.03 0.316
01:05 1028 30.36 857 25.31 7.8 46.1 90 6.2 43.2 8.06 0.317
01:06 1028 30.36 857 25.31 7.8 46.1 89 6.2 43.1 8.07 0.318
01:07 1028 30.36 857 25.31 7.8 46.1 90 6.2 43.2 8.06 0.317
01:08 1028 30.36 857 25.31 7.8 46.1 90 6.2 43.2 8.08 0.318
01:09 1028 30.36 857 25.31 7.8 46.1 90 6.3 43.3 8.08 0.318
01:10 1028 30.36 857 25.31 7.9 46.3 90 6.3 43.4 8.15 0.321
01:11 1028 30.36 857 25.31 8.1 46.5 89 6.3 43.4 8.22 0.324
01:12 1028 30.36 857 25.31 8 46.4 88 6.2 43.1 8.21 0.323
01:13 1028 30.36 857 25.31 7.9 46.3 88 6.1 43 8.15 0.321
01:14 1028 30.36 857 25.31 7.8 46.1 88 6 42.8 8.06 0.317
01:15 1028 30.36 857 25.31 7.6 45.7 89 5.9 42.6 7.91 0.311
01:16 1028 30.36 857 25.31 7.5 45.4 89 5.9 42.5 7.81 0.307
01:17 1028 30.36 857 25.31 7.3 45.2 90 5.8 42.5 7.64 0.301
01:18 1028 30.36 857 25.31 7.2 45 90 5.7 42.3 7.52 0.296
01:19 1028 30.36 857 25.31 7.1 44.8 90 5.6 42.2 7.43 0.293
01:20 1028 30.36 857 25.31 7 44.6 91 5.6 42.1 7.31 0.288
01:21 1028 30.36 857 25.31 6.9 44.5 91 5.5 42 7.24 0.285
01:22 1028 30.36 857 25.31 6.8 44.2 91 5.4 41.8 7.15 0.281
01:23 1028 30.36 857 25.31 6.8 44.2 91 5.5 41.8 7.1 0.28
01:24 1028 30.36 857 25.31 6.7 44.1 92 5.6 42 7.03 0.277
01:25 1028 30.36 857 25.31 6.7 44.1 93 5.6 42.1 7.05 0.278
01:26 1028 30.36 857 25.31 6.8 44.2 92 5.6 42.1 7.1 0.28
01:27 1028 30.36 857 25.31 6.8 44.2 92 5.6 42.1 7.08 0.279
01:28 1028 30.36 857 25.31 6.8 44.2 92 5.6 42.1 7.04 0.277
01:29 1028 30.36 857 25.31 6.7 44.1 92 5.6 42 7.06 0.278
01:30 1028 30.36 858 25.34 6.7 44.1 92 5.6 42 7.05 0.278
01:31 1028 30.36 858 25.34 6.7 44.1 93 5.6 42.1 7.02 0.276
01:32 1028 30.36 858 25.34 6.7 44.1 92 5.5 41.8 6.985 0.275
01:33 1028 30.36 858 25.34 6.7 44 93 5.6 42.2 6.968 0.274
01:34 1028 30.36 858 25.34 6.7 44.1 93 5.7 42.3 7.06 0.278
01:35 1028 30.36 858 25.34 6.8 44.3 93 5.8 42.4 7.14 0.281
01:36 1028 30.36 858 25.34 6.9 44.4 93 5.8 42.4 7.22 0.284
01:37 1028 30.36 858 25.34 7 44.6 93 5.9 42.6 7.27 0.286
01:38 1028 30.36 858 25.34 7.1 44.8 93 6 42.8 7.38 0.291
01:39 1028 30.36 858 25.34 7.2 45 92 6 42.8 7.44 0.293
01:40 1028 30.36 858 25.34 7.3 45.1 92 6.1 42.9 7.57 0.298
01:41 1028 30.36 858 25.34 7.4 45.2 89 5.7 42.3 7.59 0.299
01:42 1028 30.36 858 25.34 7.2 44.9 90 5.6 42 7.51 0.296
01:43 1028 30.36 858 25.34 7 44.6 90 5.5 42 7.32 0.288
01:44 1028 30.36 858 25.34 6.9 44.4 90 5.4 41.7 7.16 0.282
01:45 1028 30.36 858 25.34 6.8 44.2 90 5.3 41.5 7.03 0.277
01:46 1028 30.36 858 25.34 6.5 43.7 90 5 40.9 6.861 0.27
01:47 1028 30.36 858 25.34 6.5 43.7 93 5.4 41.7 6.776 0.267
01:48 1028 30.36 858 25.34 6.5 43.7 91 5.1 41.2 6.754 0.266
01:49 1028 30.36 858 25.34 6.4 43.6 93 5.3 41.6 6.697 0.264
01:50 1028 30.36 858 25.34 6.5 43.7 93 5.4 41.7 6.822 0.269
01:51 1028 30.36 858 25.34 6.4 43.6 92 5.2 41.4 6.714 0.264
01:52 1028 30.36 858 25.34 6.7 44 94 5.8 42.4 6.935 0.273
01:53 1028 30.36 858 25.34 6.8 44.2 91 5.4 41.7 6.98 0.275
01:54 1028 30.36 858 25.34 6.6 43.9 90 5.1 41.2 6.957 0.274
01:55 1028 30.36 858 25.34 6.5 43.7 92 5.3 41.5 6.855 0.27
01:56 1028 30.36 858 25.34 6.6 43.9 93 5.5 41.9 6.969 0.274
01:57 1028 30.36 858 25.34 6.6 43.9 91 5.3 41.6 6.923 0.273
01:58 1028 30.36 858 25.34 6.6 43.9 92 5.4 41.6 6.912 0.272
01:59 1028 30.36 858 25.34 6.6 43.9 92 5.4 41.7 6.935 0.273
02:00 1028 30.36 858 25.34 6.5 43.8 92 5.3 41.5 6.884 0.271
02:01 1028 30.36 858 25.34 6.6 43.8 92 5.3 41.5 6.872 0.271
02:02 1028 30.36 858 25.34 6.5 43.7 92 5.3 41.5 6.844 0.269
02:03 1028 30.36 857 25.31 6.5 43.7 92 5.2 41.4 6.822 0.269
02:04 1028 30.36 858 25.34 6.4 43.5 92 5.2 41.3 6.795 0.268
02:05 1028 30.36 858 25.34 6.4 43.5 93 5.3 41.6 6.744 0.266
02:06 1028 30.36 858 25.34 6.5 43.7 92 5.3 41.6 6.756 0.266
02:07 1028 30.36 858 25.34 6.4 43.6 92 5.2 41.4 6.757 0.266
02:08 1028 30.36 858 25.34 6.4 43.6 92 5.2 41.4 6.745 0.266
02:09 1028 30.36 858 25.34 6.4 43.6 91 5.1 41.2 6.717 0.264
02:10 1028 30.36 858 25.34 6.4 43.4 92 5.1 41.2 6.673 0.263
02:11 1028 30.36 858 25.34 6.3 43.3 92 5.1 41.2 6.661 0.262
02:12 1028 30.36 858 25.34 6.3 43.3 92 5.1 41.2 6.651 0.262
02:13 1028 30.36 858 25.34 6.3 43.4 92 5 41.1 6.64 0.261
02:14 1028 30.36 858 25.34 6.3 43.3 92 5.1 41.2 6.611 0.26
02:15 1028 30.36 858 25.34 6.3 43.3 92 5.1 41.2 6.629 0.261
02:16 1028 30.36 858 25.34 6.3 43.4 93 5.2 41.4 6.606 0.26
02:17 1028 30.36 858 25.34 6.4 43.5 92 5.2 41.3 6.686 0.263
02:18 1028 30.36 858 25.34 6.4 43.4 92 5.2 41.3 6.709 0.264
02:19 1028 30.36 858 25.34 6.4 43.5 92 5.2 41.3 6.726 0.265
02:20 1028 30.36 858 25.34 6.4 43.5 92 5.3 41.5 6.726 0.265
02:21 1028 30.36 858 25.34 6.4 43.6 92 5.3 41.5 6.71 0.264
02:22 1028 30.36 858 25.34 6.4 43.6 92 5.3 41.5 6.716 0.264
02:23 1028 30.36 858 25.34 6.5 43.7 93 5.4 41.7 6.796 0.268
02:24 1028 30.36 858 25.34 6.6 43.9 93 5.5 42 6.87 0.27
02:25 1028 30.36 858 25.34 6.8 44.2 92 5.6 42 7.02 0.276
02:26 1028 30.36 858 25.34 6.9 44.4 92 5.7 42.2 7.11 0.28
02:27 1028 30.36 858 25.34 7 44.6 91 5.7 42.3 7.22 0.284
02:28 1028 30.36 858 25.34 7.1 44.8 91 5.7 42.2 7.27 0.286
02:29 1028 30.36 858 25.34 7.2 44.9 91 5.7 42.3 7.32 0.288
02:30 1028 30.36 858 25.34 7.2 44.9 91 5.9 42.5 7.42 0.292
02:31 1028 30.36 858 25.34 7.3 45.1 89 5.6 42.2 7.51 0.296
02:32 1028 30.36 858 25.34 7.2 45 89 5.5 41.9 7.41 0.292
02:33 1028 30.36 858 25.34 7.1 44.8 89 5.5 41.9 7.32 0.288
02:34 1028 30.36 858 25.34 7 44.7 90 5.5 41.9 7.31 0.288
02:35 1028 30.36 858 25.34 7 44.5 88 5.2 41.3 7.18 0.283
02:36 1028 30.36 858 25.34 6.7 44.1 88 4.9 40.8 6.953 0.274
02:37 1028 30.36 858 25.34 6.4 43.5 89 4.7 40.5 6.681 0.263
02:38 1028 30.36 858 25.34 6.1 43.1 90 4.6 40.3 6.478 0.255
02:39 1028 30.36 858 25.34 6 42.8 91 4.6 40.3 6.348 0.25
02:40 1028 30.36 858 25.34 5.9 42.6 91 4.5 40 6.173 0.243
02:41 1028 30.36 858 25.34 5.7 42.3 91 4.4 39.9 5.986 0.236
02:42 1028 30.36 858 25.34 5.6 42 92 4.3 39.8 5.913 0.233
02:43 1028 30.36 858 25.34 5.4 41.8 92 4.3 39.7 5.794 0.228
02:44 1028 30.36 858 25.34 5.4 41.6 92 4.2 39.6 5.67 0.223
02:45 1028 30.36 858 25.34 5.3 41.5 93 4.3 39.7 5.665 0.223
02:46 1028 30.36 858 25.34 5.3 41.5 93 4.3 39.8 5.625 0.221
02:47 1028 30.36 858 25.34 5.3 41.6 94 4.4 39.9 5.636 0.222
02:48 1028 30.36 858 25.34 5.3 41.5 94 4.4 40 5.642 0.222
02:49 1028 30.36 858 25.34 5.3 41.6 94 4.4 39.9 5.648 0.222
02:50 1028 30.36 858 25.34 5.4 41.6 94 4.5 40.1 5.699 0.224
02:51 1028 30.36 858 25.34 5.4 41.7 94 4.5 40 5.711 0.225
02:52 1028 30.36 858 25.34 5.3 41.6 94 4.4 39.9 5.66 0.223
02:53 1028 30.36 858 25.34 5.3 41.6 94 4.5 40.1 5.682 0.224
02:54 1028 30.36 858 25.34 5.3 41.5 93 4.3 39.7 5.649 0.222
02:55 1028 30.36 858 25.34 5.2 41.4 93 4.2 39.6 5.513 0.217
02:56 1028 30.36 858 25.34 5 41.1 93 4 39.3 5.434 0.214
02:57 1028 30.36 858 25.34 4.9 40.9 94 4 39.2 5.377 0.212
02:58 1028 30.36 858 25.34 4.9 40.9 94 4.1 39.3 5.332 0.21
02:59 1028 30.36 858 25.34 4.9 40.8 94 4 39.2 5.264 0.207
03:00 1028 30.36 858 25.34 4.8 40.7 94 3.9 39 5.174 0.204
03:01 1028 30.36 858 25.34 4.7 40.5 94 3.8 38.9 5.117 0.201
03:02 1028 30.36 858 25.34 4.7 40.5 94 3.9 38.9 5.015 0.197
03:03 1028 30.36 858 25.34 4.6 40.3 94 3.7 38.7 4.998 0.197
03:04 1028 30.36 858 25.34 4.6 40.2 95 3.8 38.8 4.902 0.193
03:05 1028 30.36 858 25.34 4.6 40.2 95 3.8 38.9 4.942 0.195
03:06 1028 30.36 858 25.34 4.6 40.4 96 4 39.2 5.015 0.197
03:07 1028 30.36 858 25.34 4.7 40.4 96 4 39.2 5.015 0.197
03:08 1028 30.36 858 25.34 4.7 40.4 95 4 39.2 4.993 0.197
03:09 1028 30.36 858 25.34 4.7 40.4 95 4 39.1 5.004 0.197
03:10 1028 30.36 858 25.34 4.7 40.4 96 4 39.2 5.021 0.198
03:11 1029 30.39 858 25.34 4.7 40.4 95 4 39.1 4.982 0.196
03:12 1029 30.39 858 25.34 4.6 40.3 95 3.9 39 4.976 0.196
03:13 1029 30.39 858 25.34 4.6 40.2 95 3.8 38.9 4.908 0.193
03:14 1029 30.39 858 25.34 4.5 40.1 95 3.8 38.8 4.846 0.191
03:15 1029 30.39 858 25.34 4.5 40.1 95 3.8 38.8 4.823 0.19
03:16 1029 30.39 858 25.34 4.4 40 95 3.8 38.8 4.829 0.19
03:17 1029 30.39 858 25.34 4.5 40 96 3.8 38.9 4.818 0.19
03:18 1029 30.39 858 25.34 4.5 40.1 96 3.9 39 4.823 0.19
03:19 1029 30.39 858 25.34 4.6 40.2 96 4 39.1 4.88 0.192
03:20 1029 30.39 858 25.34 4.6 40.2 96 3.9 39.1 4.897 0.193
03:21 1029 30.39 858 25.34 4.6 40.3 96 4 39.2 4.908 0.193
03:22 1029 30.39 858 25.34 4.7 40.4 96 4.1 39.4 4.942 0.195
03:23 1029 30.39 858 25.34 4.7 40.5 96 4.2 39.5 5.078 0.2
03:24 1029 30.39 858 25.34 4.8 40.6 96 4.2 39.6 5.101 0.201
03:25 1029 30.39 858 25.34 4.9 40.8 96 4.3 39.8 5.191 0.204
03:26 1029 30.39 858 25.34 5 40.9 96 4.3 39.8 5.31 0.209
03:27 1029 30.39 858 25.34 5 41 95 4.3 39.8 5.282 0.208
03:28 1029 30.39 858 25.34 5 41 95 4.3 39.7 5.282 0.208
03:29 1029 30.39 858 25.34 5 40.9 95 4.2 39.6 5.316 0.209
03:30 1029 30.39 858 25.34 5 41 95 4.3 39.7 5.265 0.207
03:31 1029 30.39 858 25.34 5.1 41.1 95 4.3 39.8 5.327 0.21
03:32 1029 30.39 858 25.34 5.1 41.2 95 4.3 39.8 5.355 0.211
03:33 1029 30.39 858 25.34 5.1 41.2 95 4.3 39.8 5.35 0.211
03:34 1029 30.39 858 25.34 5.1 41.2 94 4.3 39.7 5.361 0.211
03:35 1029 30.39 858 25.34 5 41 94 4.2 39.5 5.321 0.209
03:36 1029 30.39 858 25.34 5 41 94 4.2 39.5 5.304 0.209
03:37 1028 30.36 858 25.34 5 41 94 4.2 39.5 5.282 0.208
03:38 1029 30.39 858 25.34 5 41 94 4.1 39.5 5.219 0.205
03:39 1029 30.39 858 25.34 4.9 40.9 94 4.1 39.4 5.253 0.207
03:40 1029 30.39 858 25.34 4.9 40.9 94 4.1 39.3 5.225 0.206
03:41 1029 30.39 858 25.34 4.9 40.9 94 4 39.3 5.225 0.206
03:42 1029 30.39 858 25.34 4.9 40.8 94 4 39.1 5.095 0.201
03:43 1029 30.39 858 25.34 4.7 40.5 93 3.7 38.7 5.05 0.199
03:44 1029 30.39 858 25.34 4.6 40.3 94 3.7 38.7 4.948 0.195
03:45 1029 30.39 858 25.34 4.5 40.2 94 3.6 38.4 4.84 0.191
03:46 1029 30.39 858 25.34 4.4 39.9 94 3.5 38.3 4.744 0.187
03:47 1028 30.36 858 25.34 4.3 39.7 94 3.4 38.2 4.676 0.184
03:48 1028 30.36 858 25.34 4.3 39.7 95 3.6 38.4 4.631 0.182
03:49 1028 30.36 858 25.34 4.3 39.8 96 3.7 38.7 4.722 0.186
03:50 1028 30.36 858 25.34 4.4 39.9 96 3.8 38.8 4.773 0.188
03:51 1029 30.39 858 25.34 4.5 40.1 96 3.9 39 4.846 0.191
03:52 1028 30.36 858 25.34 4.6 40.3 96 4.1 39.3 4.931 0.194
03:53 1029 30.39 858 25.34 4.7 40.5 96 4.2 39.5 5.078 0.2
03:54 1028 30.36 858 25.34 4.8 40.7 96 4.2 39.6 5.18 0.204
03:55 1029 30.39 858 25.34 4.9 40.8 95 4.2 39.6 5.27 0.207
03:56 1029 30.39 858 25.34 5 41 95 4.3 39.8 5.304 0.209
03:57 1029 30.39 858 25.34 5.1 41.1 95 4.4 39.8 5.401 0.213
03:58 1028 30.36 858 25.34 5.1 41.2 95 4.4 39.9 5.44 0.214
03:59 1029 30.39 858 25.34 5.2 41.4 95 4.4 40 5.536 0.218
04:00 1029 30.39 858 25.34 5.3 41.5 94 4.4 40 5.519 0.217
04:01 1029 30.39 858 25.34 5.3 41.5 94 4.4 39.9 5.57 0.219
04:02 1029 30.39 858 25.34 5.2 41.4 94 4.3 39.8 5.587 0.22
04:03 1029 30.39 858 25.34 5.2 41.4 94 4.3 39.7 5.593 0.22
04:04 1029 30.39 858 25.34 5.2 41.4 93 4.3 39.7 5.553 0.219
04:05 1029 30.39 858 25.34 5.2 41.3 93 4.2 39.6 5.553 0.219
04:06 1029 30.39 858 25.34 5.2 41.3 93 4.2 39.5 5.503 0.217
04:07 1029 30.39 858 25.34 5.2 41.3 94 4.2 39.6 5.493 0.216
04:08 1029 30.39 858 25.34 5.2 41.3 94 4.3 39.7 5.527 0.218
04:09 1029 30.39 858 25.34 5.2 41.4 94 4.3 39.8 5.594 0.22
04:10 1029 30.39 858 25.34 5.3 41.6 94 4.4 40 5.656 0.223
04:11 1029 30.39 858 25.34 5.4 41.7 94 4.5 40.1 5.713 0.225
04:12 1029 30.39 858 25.34 5.5 41.8 94 4.5 40.1 5.793 0.228
04:13 1029 30.39 858 25.34 5.5 42 94 4.6 40.3 5.856 0.231
04:14 1029 30.39 858 25.34 5.6 42.1 94 4.6 40.3 5.918 0.233
04:15 1029 30.39 858 25.34 5.7 42.2 93 4.7 40.5 5.992 0.236
04:16 1029 30.39 858 25.34 5.8 42.4 93 4.8 40.6 6.06 0.239
04:17 1029 30.39 858 25.34 5.8 42.5 93 4.8 40.7 6.162 0.243
04:18 1029 30.39 858 25.34 5.9 42.6 93 4.8 40.7 6.197 0.244
04:19 1029 30.39 858 25.34 5.9 42.6 93 4.9 40.7 6.18 0.243
04:20 1029 30.39 858 25.34 5.9 42.6 93 4.8 40.6 6.191 0.244
04:21 1029 30.39 858 25.34 5.9 42.6 93 4.8 40.6 6.197 0.244
04:22 1029 30.39 858 25.34 5.8 42.5 93 4.8 40.6 6.141 0.242
04:23 1029 30.39 858 25.34 5.8 42.4 93 4.7 40.4 6.09 0.24
04:24 1029 30.39 858 25.34 5.8 42.4 93 4.7 40.5 6.091 0.24
04:25 1029 30.39 858 25.34 5.7 42.3 93 4.7 40.5 6.079 0.239
04:26 1029 30.39 858 25.34 5.7 42.3 94 4.7 40.5 6.028 0.237
04:27 1029 30.39 858 25.34 5.7 42.3 94 4.7 40.5 6.057 0.238
04:28 1029 30.39 858 25.34 5.7 42.2 94 4.7 40.5 6.063 0.239
04:29 1029 30.39 858 25.34 5.7 42.3 93 4.8 40.6 6.08 0.239
04:30 1029 30.39 858 25.34 5.7 42.2 93 4.7 40.5 6.052 0.238
04:31 1029 30.39 858 25.34 5.7 42.2 93 4.6 40.3 6.007 0.236
04:32 1029 30.39 858 25.34 5.6 42 93 4.5 40 5.91 0.233
04:33 1029 30.39 858 25.34 5.5 41.9 93 4.5 40 5.809 0.229
04:34 1029 30.39 858 25.34 5.4 41.8 93 4.5 40 5.792 0.228
04:35 1029 30.39 858 25.34 5.4 41.8 94 4.5 40.1 5.809 0.229
04:36 1029 30.39 858 25.34 5.4 41.8 94 4.5 40.1 5.803 0.228
04:37 1029 30.39 858 25.34 5.4 41.8 94 4.5 40.2 5.781 0.228
04:38 1029 30.39 858 25.34 5.5 41.8 94 4.6 40.3 5.832 0.23
04:39 1029 30.39 858 25.34 5.4 41.8 94 4.6 40.2 5.804 0.229
04:40 1029 30.39 858 25.34 5.5 41.8 94 4.5 40.2 5.781 0.228
04:41 1029 30.39 858 25.34 5.5 41.9 94 4.5 40.2 5.798 0.228
04:42 1029 30.39 858 25.34 5.4 41.8 93 4.4 39.9 5.736 0.226
04:43 1029 30.39 858 25.34 5.4 41.7 93 4.4 39.9 5.679 0.224
04:44 1029 30.39 858 25.34 5.3 41.6 93 4.3 39.8 5.572 0.219
04:45 1029 30.39 858 25.34 5.3 41.5 94 4.3 39.8 5.604 0.221
04:46 1029 30.39 858 25.34 5.2 41.4 94 4.4 39.8 5.542 0.218
04:47 1029 30.39 858 25.34 5.2 41.4 94 4.3 39.8 5.587 0.22
04:48 1029 30.39 858 25.34 5.3 41.5 95 4.5 40 5.588 0.22
04:49 1029 30.39 858 25.34 5.3 41.6 94 4.4 40 5.656 0.223
04:50 1029 30.39 858 25.34 5.2 41.4 92 4.1 39.4 5.492 0.216
04:51 1029 30.39 858 25.34 5 41.1 92 3.9 39 5.322 0.21
04:52 1029 30.39 858 25.34 4.9 40.9 93 3.9 38.9 5.243 0.206
04:53 1029 30.39 858 25.34 4.8 40.6 93 3.7 38.7 5.102 0.201
04:54 1029 30.39 858 25.34 4.6 40.3 93 3.6 38.4 4.994 0.197
04:55 1029 30.39 858 25.34 4.5 40.2 94 3.7 38.7 4.926 0.194
04:56 1029 30.39 858 25.34 4.6 40.4 95 4 39.1 5.017 0.198
04:57 1029 30.39 858 25.34 4.8 40.6 95 4 39.3 5.04 0.198
04:58 1029 30.39 858 25.34 4.7 40.5 95 4 39.2 5.074 0.2
04:59 1029 30.39 858 25.34 4.8 40.6 95 4 39.2 5.051 0.199
05:00 1029 30.39 858 25.34 4.8 40.6 94 3.9 39.1 5.04 0.198
05:01 1029 30.39 858 25.34 4.8 40.6 95 4 39.3 5.085 0.2
05:02 1029 30.39 858 25.34 4.9 40.9 96 4.3 39.8 5.21 0.205
05:03 1029 30.39 858 25.34 5.1 41.2 96 4.5 40.1 5.396 0.212
05:04 1029 30.39 858 25.34 5.3 41.5 96 4.6 40.3 5.538 0.218
05:05 1029 30.39 858 25.34 5.3 41.6 94 4.4 39.9 5.521 0.217
05:06 1029 30.39 858 25.34 5.2 41.3 93 4.1 39.3 5.351 0.211
05:07 1029 30.39 858 25.34 5.1 41.2 93 4.1 39.4 5.312 0.209
05:08 1029 30.39 858 25.34 5 41 92 3.9 39 5.193 0.204
05:09 1029 30.39 858 25.34 4.8 40.7 93 3.8 38.8 5.08 0.2
05:10 1029 30.39 858 25.34 4.8 40.6 94 3.9 39.1 5.04 0.198
05:11 1029 30.39 858 25.34 4.8 40.7 94 4 39.1 5.057 0.199
05:12 1029 30.39 858 25.34 4.8 40.7 94 4 39.1 5.063 0.199
05:13 1029 30.39 858 25.34 4.8 40.6 94 3.9 39.1 5.074 0.2
05:14 1029 30.39 858 25.34 4.7 40.5 93 3.7 38.7 5.001 0.197
05:15 1029 30.39 858 25.34 4.7 40.4 94 3.8 38.9 4.938 0.194
05:16 1029 30.39 858 25.34 4.7 40.4 94 3.7 38.7 4.916 0.194
05:17 1029 30.39 858 25.34 4.6 40.3 94 3.8 38.8 4.887 0.192
05:18 1029 30.39 858 25.34 4.5 40.2 94 3.7 38.6 4.825 0.19
05:19 1029 30.39 858 25.34 4.4 40 94 3.6 38.4 4.757 0.187
05:20 1029 30.39 858 25.34 4.4 39.9 95 3.6 38.5 4.736 0.186
05:21 1029 30.39 858 25.34 4.4 39.9 95 3.6 38.5 4.657 0.183
05:22 1029 30.39 858 25.34 4.4 39.9 96 3.7 38.7 4.702 0.185
05:23 1029 30.39 858 25.34 4.4 39.9 96 3.7 38.7 4.73 0.186
05:24 1029 30.39 858 25.34 4.4 39.9 95 3.6 38.6 4.696 0.185
05:25 1029 30.39 858 25.34 4.4 39.9 96 3.7 38.7 4.668 0.184
05:26 1029 30.39 858 25.34 4.4 39.9 96 3.8 38.8 4.732 0.186
05:27 1029 30.39 858 25.34 4.5 40 96 3.8 38.9 4.777 0.188
05:28 1029 30.39 858 25.34 4.5 40.2 96 3.9 39 4.811 0.189
05:29 1029 30.39 858 25.34 4.6 40.2 96 3.9 39 4.822 0.19
05:30 1029 30.39 858 25.34 4.6 40.3 95 4 39.1 4.89 0.193
05:31 1029 30.39 858 25.34 4.6 40.3 95 3.9 39 4.895 0.193
05:32 1029 30.39 858 25.34 4.6 40.3 95 3.9 38.9 4.874 0.192
05:33 1029 30.39 858 25.34 4.6 40.3 94 3.8 38.8 4.851 0.191
05:34 1029 30.39 858 25.34 4.5 40.1 95 3.7 38.7 4.851 0.191
05:35 1029 30.39 858 25.34 4.6 40.2 95 3.8 38.8 4.858 0.191
05:36 1029 30.39 858 25.34 4.5 40.1 95 3.7 38.7 4.829 0.19
05:37 1029 30.39 858 25.34 4.6 40.3 95 3.9 39 4.83 0.19
05:38 1029 30.39 858 25.34 4.6 40.3 95 3.9 39 4.909 0.193
05:39 1029 30.39 858 25.34 4.7 40.4 94 3.9 38.9 4.926 0.194
05:40 1029 30.39 858 25.34 4.6 40.4 94 3.8 38.8 4.932 0.194
05:41 1029 30.39 858 25.34 4.7 40.4 95 3.9 39 4.961 0.195
05:42 1029 30.39 858 25.34 4.8 40.6 94 3.9 39 4.989 0.196
05:43 1029 30.39 858 25.34 4.8 40.6 94 3.9 39.1 5.046 0.199
05:44 1029 30.39 858 25.34 4.8 40.7 94 4 39.1 5.052 0.199
05:45 1029 30.39 858 25.34 4.8 40.7 94 3.9 39 5.08 0.2
05:46 1029 30.39 858 25.34 4.9 40.7 93 3.9 39 5.12 0.202
05:47 1029 30.39 858 25.34 4.8 40.7 93 3.9 38.9 5.092 0.2
05:48 1029 30.39 858 25.34 4.8 40.6 93 3.8 38.8 5.03 0.198
05:49 1029 30.39 858 25.34 4.8 40.6 93 3.8 38.8 5.013 0.197
05:50 1029 30.39 858 25.34 4.7 40.5 93 3.7 38.7 5.019 0.198
05:51 1029 30.39 858 25.34 4.7 40.4 93 3.7 38.6 4.934 0.194
05:52 1029 30.39 858 25.34 4.6 40.2 94 3.6 38.5 4.877 0.192
05:53 1029 30.39 858 25.34 4.6 40.2 94 3.7 38.6 4.86 0.191
05:54 1029 30.39 858 25.34 4.5 40.2 94 3.7 38.6 4.889 0.192
05:55 1029 30.39 858 25.34 4.5 40.2 94 3.7 38.7 4.911 0.193
05:56 1029 30.39 858 25.34 4.6 40.2 95 3.8 38.8 4.934 0.194
05:57 1029 30.39 858 25.34 4.6 40.2 95 3.8 38.9 4.889 0.192
05:58 1029 30.39 858 25.34 4.6 40.3 95 3.8 38.9 4.923 0.194
05:59 1029 30.39 858 25.34 4.6 40.3 95 3.8 38.9 4.94 0.194
06:00 1029 30.39 858 25.34 4.6 40.3 95 3.9 39 4.991 0.196
06:01 1029 30.39 858 25.34 4.7 40.4 95 3.9 39 5.014 0.197
06:02 1029 30.39 858 25.34 4.7 40.4 94 3.9 39 5.002 0.197
06:03 1029 30.39 858 25.34 4.6 40.3 94 3.8 38.8 4.963 0.195
06:04 1029 30.39 858 25.34 4.6 40.3 94 3.8 38.8 4.912 0.193
06:05 1029 30.39 858 25.34 4.6 40.2 94 3.7 38.7 4.872 0.192
06:06 1029 30.39 858 25.34 4.5 40.1 94 3.7 38.7 4.867 0.192
06:07 1029 30.39 858 25.34 4.5 40 94 3.6 38.5 4.833 0.19
06:08 1029 30.39 858 25.34 4.4 39.9 94 3.5 38.4 4.703 0.185
06:09 1029 30.39 858 25.34 4.4 39.8 95 3.6 38.5 4.737 0.186
06:10 1029 30.39 858 25.34 4.4 39.9 95 3.7 38.6 4.759 0.187
06:11 1029 30.39 858 25.34 4.4 39.9 95 3.7 38.6 4.748 0.187
06:12 1029 30.39 858 25.34 4.5 40.1 95 3.8 38.8 4.754 0.187
06:13 1029 30.39 858 25.34 4.4 39.9 95 3.7 38.7 4.799 0.189
06:14 1029 30.39 858 25.34 4.4 40 95 3.7 38.7 4.765 0.188
06:15 1029 30.39 858 25.34 4.5 40 95 3.8 38.8 4.776 0.188
06:16 1029 30.39 858 25.34 4.4 40 95 3.7 38.7 4.799 0.189
06:17 1029 30.39 858 25.34 4.4 39.9 95 3.7 38.6 4.737 0.186
06:18 1029 30.39 858 25.34 4.4 39.9 95 3.7 38.7 4.765 0.188
06:19 1029 30.39 858 25.34 4.4 39.9 95 3.7 38.7 4.731 0.186
06:20 1029 30.39 858 25.34 4.4 39.9 95 3.7 38.7 4.759 0.187
06:21 1029 30.39 858 25.34 4.4 40 96 3.8 38.9 4.776 0.188
06:22 1029 30.39 858 25.34 4.4 40 96 3.8 38.8 4.782 0.188
06:23 1029 30.39 858 25.34 4.5 40 95 3.8 38.8 4.793 0.189
06:24 1029 30.39 858 25.34 4.4 40 95 3.7 38.6 4.788 0.189
06:25 1029 30.39 858 25.34 4.4 39.9 95 3.7 38.6 4.731 0.186
06:26 1029 30.39 858 25.34 4.4 39.8 95 3.7 38.6 4.703 0.185
06:27 1029 30.39 858 25.34 4.3 39.8 95 3.6 38.5 4.714 0.186
06:28 1029 30.39 858 25.34 4.3 39.7 95 3.6 38.4 4.669 0.184
06:29 1029 30.39 858 25.34 4.3 39.8 95 3.6 38.6 4.658 0.183
06:30 1029 30.39 858 25.34 4.3 39.8 96 3.7 38.7 4.691 0.185
06:31 1029 30.39 858 25.34 4.4 39.9 96 3.7 38.7 4.748 0.187
06:32 1029 30.39 858 25.34 4.4 40 95 3.8 38.8 4.776 0.188
06:33 1029 30.39 858 25.34 4.5 40.1 96 3.8 38.9 4.782 0.188
06:34 1029 30.39 858 25.34 4.6 40.2 96 3.9 39.1 4.839 0.191
06:35 1029 30.39 858 25.34 4.7 40.4 95 4 39.2 4.957 0.195
06:36 1029 30.39 858 25.34 4.7 40.5 95 4.1 39.3 5.037 0.198
06:37 1029 30.39 858 25.34 4.8 40.7 95 4.1 39.4 5.065 0.199
06:38 1029 30.39 858 25.34 4.9 40.9 95 4.2 39.6 5.144 0.203
06:39 1029 30.39 858 25.34 5 41 95 4.3 39.8 5.297 0.209
06:40 1029 30.39 858 25.34 5.2 41.3 95 4.4 40 5.444 0.214
06:41 1029 30.39 858 25.34 5.4 41.6 95 4.6 40.2 5.665 0.223
06:42 1029 30.39 858 25.34 5.5 41.9 94 4.6 40.3 5.812 0.229
06:43 1029 30.39 858 25.34 5.6 42.1 93 4.6 40.2 5.908 0.233
06:44 1029 30.39 858 25.34 5.7 42.2 93 4.6 40.2 5.942 0.234
06:45 1029 30.39 858 25.34 5.7 42.3 92 4.5 40.2 6.033 0.238
06:46 1029 30.39 858 25.34 5.7 42.3 92 4.4 40 6.044 0.238
06:47 1029 30.39 858 25.34 5.7 42.3 92 4.5 40.1 6.016 0.237
06:48 1029 30.39 858 25.34 5.7 42.3 92 4.5 40.1 6.05 0.238
06:49 1029 30.39 858 25.34 5.7 42.3 92 4.5 40.1 6.072 0.239
06:50 1029 30.39 858 25.34 5.8 42.4 92 4.5 40.2 6.14 0.242
06:51 1029 30.39 858 25.34 5.8 42.5 92 4.6 40.2 6.214 0.245
06:52 1029 30.39 858 25.34 5.9 42.6 92 4.6 40.3 6.248 0.246
06:53 1029 30.39 858 25.34 6 42.7 91 4.6 40.3 6.333 0.249
06:54 1029 30.39 858 25.34 6 42.8 91 4.6 40.3 6.384 0.251
06:55 1029 30.39 858 25.34 6 42.9 91 4.6 40.3 6.418 0.253
06:56 1029 30.39 858 25.34 6.1 42.9 90 4.6 40.3 6.452 0.254
06:57 1029 30.39 858 25.34 6.1 43 90 4.7 40.4 6.497 0.256
06:58 1029 30.39 858 25.34 6.2 43.1 90 4.7 40.4 6.599 0.26
06:59 1029 30.39 858 25.34 6.3 43.4 90 4.8 40.6 6.672 0.263
07:00 1029 30.39 858 25.34 6.3 43.4 90 4.8 40.6 6.723 0.265
07:01 1029 30.39 858 25.34 6.4 43.5 90 4.8 40.7 6.769 0.266
07:02 1029 30.39 858 25.34 6.5 43.7 89 4.8 40.7 6.91 0.272
07:03 1029 30.39 858 25.34 6.5 43.8 89 4.9 40.8 6.938 0.273
07:04 1029 30.39 858 25.34 6.6 43.9 89 4.9 40.8 7.01 0.276
07:05 1029 30.39 858 25.34 6.6 43.9 89 5 41 7.07 0.278
07:06 1029 30.39 858 25.34 6.7 44 89 5 41.1 7.11 0.28
07:07 1029 30.39 858 25.34 6.7 44 89 5 41.1 7.18 0.283
07:08 1029 30.39 858 25.34 6.7 44 90 5.1 41.2 7.19 0.283
07:09 1029 30.39 858 25.34 6.7 44.1 89 5.1 41.2 7.25 0.285
07:10 1029 30.39 858 25.34 6.8 44.2 89 5.2 41.3 7.27 0.286
07:11 1029 30.39 858 25.34 6.8 44.3 90 5.2 41.4 7.31 0.288
07:12 1029 30.39 858 25.34 6.8 44.3 90 5.2 41.4 7.39 0.291
07:13 1029 30.39 858 25.34 6.9 44.4 89 5.2 41.4 7.44 0.293
07:14 1029 30.39 858 25.34 7 44.5 89 5.3 41.5 7.5 0.295
07:15 1029 30.39 858 25.34 7 44.6 89 5.3 41.5 7.59 0.299
07:16 1029 30.39 858 25.34 7.1 44.7 88 5.3 41.5 7.63 0.3
07:17 1029 30.39 858 25.34 7.1 44.8 88 5.3 41.5 7.71 0.304
07:18 1029 30.39 858 25.34 7.2 44.9 88 5.3 41.5 7.72 0.304
07:19 1029 30.39 858 25.34 7.2 45 87 5.3 41.5 7.75 0.305
07:20 1029 30.39 858 25.34 7.3 45.1 88 5.4 41.8 7.75 0.305
07:21 1029 30.39 858 25.34 7.3 45.1 88 5.5 41.8 7.83 0.308
07:22 1029 30.39 858 25.34 7.3 45.2 88 5.4 41.8 7.85 0.309
07:23 1029 30.39 858 25.34 7.4 45.2 88 5.6 42 7.84 0.309
07:24 1029 30.39 858 25.34 7.4 45.3 88 5.6 42.1 7.9 0.311
07:25 1029 30.39 858 25.34 7.5 45.4 88 5.7 42.2 7.93 0.312
07:26 1029 30.39 858 25.34 7.5 45.6 88 5.7 42.2 8.04 0.317
07:27 1029 30.39 858 25.34 7.6 45.7 88 5.8 42.4 8.1 0.319
07:28 1029 30.39 858 25.34 7.7 45.9 88 5.8 42.4 8.15 0.321
07:29 1029 30.39 858 25.34 7.8 46 87 5.7 42.3 8.22 0.324
07:30 1029 30.39 858 25.34 7.8 46.1 87 5.8 42.4 8.31 0.327
07:31 1029 30.39 858 25.34 7.9 46.2 87 5.8 42.4 8.29 0.326
07:32 1029 30.39 858 25.34 7.9 46.2 87 5.8 42.5 8.41 0.331
07:33 1029 30.39 858 25.34 8 46.3 86 5.7 42.3 8.49 0.334
07:34 1029 30.39 858 25.34 8.1 46.5 86 5.9 42.6 8.56 0.337
07:35 1029 30.39 858 25.34 8.1 46.7 87 6.2 43.1 8.71 0.343
07:36 1029 30.39 858 25.34 8.3 46.9 86 6 42.9 8.83 0.348
07:37 1029 30.39 858 25.34 8.4 47 85 6 42.9 8.96 0.353
07:38 1029 30.39 858 25.34 8.5 47.2 85 6.1 42.9 9.1 0.358
07:39 1029 30.39 858 25.34 8.5 47.4 85 6.1 43 9.25 0.364
07:40 1029 30.39 858 25.34 8.6 47.5 84 6.1 43 9.37 0.369
07:41 1029 30.39 858 25.34 8.7 47.6 84 6.1 43 9.44 0.372
07:42 1029 30.39 858 25.34 8.7 47.7 85 6.3 43.3 9.5 0.374
07:43 1029 30.39 858 25.34 8.8 47.9 82 6 42.7 9.61 0.378
07:44 1029 30.39 858 25.34 8.9 47.9 84 6.3 43.3 9.67 0.381
07:45 1029 30.39 858 25.34 8.9 48.1 83 6.2 43.2 9.71 0.382
07:46 1029 30.39 858 25.34 9 48.1 83 6.3 43.4 9.66 0.38
07:47 1029 30.39 858 25.34 9 48.3 85 6.7 44.1 9.77 0.385
07:48 1029 30.39 858 25.34 9.1 48.4 83 6.3 43.4 9.81 0.386
07:49 1029 30.39 858 25.34 9.2 48.5 84 6.7 44.1 9.79 0.385
07:50 1029 30.39 858 25.34 9.2 48.5 83 6.4 43.6 9.77 0.385
07:51 1029 30.39 858 25.34 9.2 48.6 82 6.3 43.3 9.79 0.385
07:52 1029 30.39 858 25.34 9.2 48.6 83 6.6 43.8 9.78 0.385
07:53 1029 30.39 858 25.34 9.3 48.7 85 6.9 44.5 9.84 0.387
07:54 1029 30.39 858 25.34 9.4 48.8 83 6.6 44 9.88 0.389
07:55 1029 30.39 858 25.34 9.4 48.8 81 6.4 43.4 9.82 0.387
07:56 1029 30.39 858 25.34 9.4 48.9 84 6.8 44.2 9.85 0.388
07:57 1029 30.39 858 25.34 9.4 48.9 81 6.4 43.5 9.9 0.39
07:58 1029 30.39 858 25.34 9.4 49 82 6.5 43.7 9.88 0.389
07:59 1029 30.39 858 25.34 9.5 49 81 6.4 43.5 9.9 0.39
08:00 1029 30.39 858 25.34 9.5 49.1 82 6.6 43.9 9.93 0.391
08:01 1029 30.39 858 25.34 9.5 49.2 81 6.4 43.6 10 0.394
08:02 1029 30.39 858 25.34 9.6 49.3 82 6.7 44.1 10.11 0.398
08:03 1029 30.39 858 25.34 9.7 49.5 79 6.3 43.3 10.23 0.403
08:04 1029 30.39 858 25.34 9.8 49.6 82 6.8 44.2 10.31 0.406
08:05 1029 30.39 858 25.34 9.9 49.7 82 6.9 44.4 10.41 0.41
08:06 1029 30.39 858 25.34 9.9 49.9 80 6.6 43.9 10.49 0.413
08:07 1029 30.39 858 25.34 10 50 77 6.2 43.2 10.46 0.412
08:08 1029 30.39 858 25.34 10.1 50.1 78 6.4 43.6 10.5 0.413
08:09 1029 30.39 858 25.34 10.1 50.2 78 6.4 43.5 10.63 0.419
08:10 1029 30.39 858 25.34 10.2 50.3 78 6.5 43.8 10.76 0.424
08:11 1029 30.39 858 25.34 10.3 50.6 77 6.4 43.6 10.93 0.43
08:12 1029 30.39 858 25.34 10.4 50.7 76 6.3 43.3 11.1 0.437
08:13 1029 30.39 858 25.34 10.5 50.8 77 6.6 43.8 11.2 0.441
08:14 1029 30.39 858 25.34 10.6 51 76 6.6 43.8 11.34 0.446
08:15 1029 30.39 858 25.34 10.7 51.3 77 6.8 44.2 11.44 0.45
08:16 1029 30.39 858 25.34 10.7 51.2 77 6.9 44.4 11.41 0.449
08:17 1029 30.39 858 25.34 10.7 51.3 77 6.8 44.3 11.41 0.449
08:18 1029 30.39 858 25.34 10.7 51.3 76 6.7 44.1 11.35 0.447
08:19 1029 30.39 858 25.34 10.8 51.5 77 7 44.7 11.46 0.451
08:20 1029 30.39 858 25.34 10.9 51.6 75 6.6 43.8 11.6 0.457
08:21 1029 30.39 858 25.34 10.9 51.7 75 6.8 44.2 11.56 0.455
08:22 1029 30.39 858 25.34 10.9 51.7 77 7 44.6 11.51 0.453
08:23 1029 30.39 858 25.34 11.1 51.9 74 6.7 44 11.65 0.459
08:24 1029 30.39 859 25.37 11.1 52.1 73 6.4 43.6 11.72 0.461
08:25 1029 30.39 858 25.34 11.2 52.1 76 7.2 44.9 11.82 0.465
08:26 1029 30.39 858 25.34 11.3 52.3 75 7.1 44.7 11.9 0.469
08:27 1029 30.39 859 25.37 11.4 52.5 73 6.6 44 12 0.472
08:28 1029 30.39 858 25.34 11.5 52.7 75 7.2 45 12.07 0.475
08:29 1029 30.39 858 25.34 11.6 52.8 75 7.3 45.2 12.13 0.478
08:30 1029 30.39 858 25.34 11.6 52.8 75 7.3 45.1 12.12 0.477
08:31 1029 30.39 858 25.34 11.6 52.9 70 6.3 43.4 12.22 0.481
08:32 1029 30.39 858 25.34 11.7 53 69 6.3 43.3 12.25 0.482
08:33 1029 30.39 858 25.34 11.7 53 73 7 44.6 12.23 0.481
08:34 1029 30.39 858 25.34 11.7 53 73 7.1 44.8 12.25 0.482
08:35 1029 30.39 858 25.34 11.8 53.2 72 6.9 44.3 12.32 0.485
08:36 1029 30.39 858 25.34 11.9 53.3 71 6.9 44.4 12.34 0.486
08:37 1029 30.39 858 25.34 12 53.6 72 7.2 45 12.46 0.491
08:38 1029 30.39 858 25.34 12.2 54 70 6.9 44.3 12.58 0.495
08:39 1029 30.39 858 25.34 12.2 53.9 69 6.6 43.9 12.62 0.497
08:40 1029 30.39 858 25.34 12.2 54 72 7.3 45.1 12.62 0.497
08:41 1029 30.39 858 25.34 12.4 54.3 71 7.2 45 12.73 0.501
08:42 1029 30.39 858 25.34 12.6 54.6 68 6.9 44.4 12.81 0.504
08:43 1029 30.39 858 25.34 12.6 54.8 67 6.7 44.1 12.7 0.5
08:44 1029 30.39 858 25.34 12.6 54.7 69 7.2 45 12.61 0.496
08:45 1029 30.39 858 25.34 12.6 54.7 69 7.2 44.9 12.67 0.499
08:46 1029 30.39 858 25.34 12.5 54.5 68 6.9 44.4 12.77 0.503
08:47 1029 30.39 858 25.34 12.5 54.6 73 7.8 46 12.83 0.505
08:48 1029 30.39 858 25.34 12.6 54.6 68 6.9 44.4 12.91 0.508
08:49 1029 30.39 858 25.34 12.5 54.6 68 6.9 44.3 12.89 0.507
08:50 1029 30.39 858 25.34 12.5 54.5 68 6.8 44.3 12.83 0.505
08:51 1029 30.39 858 25.34 12.4 54.3 69 6.8 44.3 12.78 0.503
08:52 1029 30.39 858 25.34 12.4 54.3 68 6.8 44.2 12.81 0.504
08:53 1029 30.39 858 25.34 12.6 54.6 67 6.7 44.1 12.89 0.507
08:54 1029 30.39 858 25.34 12.7 54.9 66 6.6 43.9 12.97 0.511
08:55 1029 30.39 858 25.34 12.8 55.1 70 7.5 45.4 13.06 0.514
08:56 1029 30.39 858 25.34 12.9 55.2 70 7.6 45.7 13.1 0.516
08:57 1029 30.39 858 25.34 12.9 55.2 68 7.3 45.1 13.18 0.519
08:58 1029 30.39 858 25.34 13 55.4 68 7.3 45.2 13.15 0.518
08:59 1029 30.39 858 25.34 13 55.3 69 7.5 45.4 13.18 0.519
09:00 1029 30.39 858 25.34 12.9 55.2 73 8.2 46.7 13.17 0.519
09:01 1029 30.39 858 25.34 12.8 55.1 70 7.5 45.5 13.14 0.517
09:02 1029 30.39 858 25.34 12.7 54.8 69 7.1 44.9 13.09 0.515
09:03 1029 30.39 858 25.34 12.6 54.6 69 7 44.6 12.97 0.511
09:04 1029 30.39 858 25.34 12.5 54.4 73 7.8 46 12.9 0.508
09:05 1029 30.39 858 25.34 12.5 54.4 70 7.3 45.1 12.9 0.508
09:06 1029 30.39 858 25.34 12.4 54.3 70 7 44.7 12.84 0.506
09:07 1029 30.39 858 25.34 12.4 54.4 71 7.3 45.2 12.82 0.505
09:08 1029 30.39 858 25.34 12.6 54.7 70 7.3 45.1 12.98 0.511
09:09 1029 30.39 858 25.34 12.7 54.8 70 7.4 45.2 13.06 0.514
09:10 1029 30.39 858 25.34 12.7 54.9 70 7.5 45.5 13.14 0.517
09:11 1029 30.39 858 25.34 12.8 55.1 75 8.6 47.4 13.19 0.519
09:12 1029 30.39 858 25.34 12.9 55.2 71 7.8 46.1 13.18 0.519
09:13 1029 30.39 858 25.34 13 55.4 71 7.8 46.1 13.15 0.518
09:14 1029 30.39 858 25.34 13 55.5 68 7.3 45.2 13.09 0.515
09:15 1029 30.39 858 25.34 13.1 55.5 74 8.5 47.3 13.16 0.518
09:16 1029 30.39 858 25.34 13.1 55.6 69 7.7 45.8 13.18 0.519
09:17 1029 30.39 858 25.34 13.2 55.7 68 7.5 45.4 13.25 0.522
09:18 1029 30.39 858 25.34 13.3 55.9 69 7.7 45.9 13.38 0.527
09:19 1029 30.39 858 25.34 13.3 55.9 69 7.8 46.1 13.48 0.531
09:20 1029 30.39 858 25.34 13.2 55.8 67 7.3 45.1 13.53 0.533
09:21 1029 30.39 858 25.34 13.2 55.7 67 7.3 45.1 13.43 0.529
09:22 1029 30.39 858 25.34 13.1 55.5 69 7.5 45.5 13.46 0.53
09:23 1029 30.39 858 25.34 13.1 55.6 68 7.3 45.2 13.53 0.533
09:24 1029 30.39 858 25.34 13.3 55.9 68 7.6 45.7 13.64 0.537
09:25 1029 30.39 858 25.34 13.6 56.4 71 8.6 47.4 13.86 0.546
09:26 1029 30.39 858 25.34 13.8 56.8 70 8.6 47.4 14.02 0.552
09:27 1029 30.39 858 25.34 13.9 57.1 66 7.8 46.1 14.18 0.558
09:28 1029 30.39 858 25.34 13.8 56.8 69 8.3 47 14.12 0.556
09:29 1029 30.39 858 25.34 13.7 56.6 67 7.7 45.9 14.1 0.555
09:30 1029 30.39 858 25.34 13.5 56.3 70 8.1 46.5 13.89 0.547
09:31 1029 30.39 858 25.34 13.3 55.9 73 8.6 47.4 13.74 0.541
09:32 1029 30.39 858 25.34 13.3 55.9 69 7.8 46.1 13.72 0.54
09:33 1029 30.39 858 25.34 13.2 55.8 70 7.8 46.1 13.68 0.539
09:34 1029 30.39 858 25.34 13.2 55.8 68 7.4 45.4 13.67 0.538
09:35 1029 30.39 858 25.34 13.3 55.9 68 7.5 45.5 13.65 0.537
09:36 1029 30.39 858 25.34 13.4 56.1 67 7.4 45.4 13.66 0.538
09:37 1029 30.39 858 25.34 13.5 56.4 67 7.6 45.7 13.79 0.543
09:38 1029 30.39 858 25.34 13.6 56.6 69 8.2 46.8 13.99 0.551
09:39 1029 30.39 858 25.34 13.9 56.9 67 7.8 46.1 14.19 0.559
09:40 1029 30.39 858 25.34 14.1 57.3 68 8.3 46.9 14.41 0.567
09:41 1029 30.39 858 25.34 14.3 57.7 64 7.6 45.7 14.63 0.576
09:42 1029 30.39 858 25.34 14.3 57.7 67 8.4 47.1 14.65 0.577
09:43 1029 30.39 858 25.34 14.4 57.9 65 8 46.3 14.68 0.578
09:44 1029 30.39 858 25.34 14.6 58.2 64 8 46.4 14.7 0.579
09:45 1029 30.39 858 25.34 14.7 58.5 66 8.6 47.4 14.72 0.58
09:46 1029 30.39 858 25.34 14.8 58.6 64 8.1 46.5 14.69 0.578
09:47 1029 30.39 858 25.34 14.6 58.4 64 8 46.3 14.56 0.573
09:48 1029 30.39 858 25.34 14.6 58.3 65 8.3 46.9 14.5 0.571
09:49 1029 30.39 858 25.34 14.7 58.4 64 8.1 46.6 14.6 0.575
09:50 1029 30.39 858 25.34 14.8 58.6 66 8.6 47.5 14.67 0.578
09:51 1029 30.39 858 25.34 14.7 58.5 64 8.1 46.5 14.73 0.58
09:52 1029 30.39 858 25.34 14.5 58.1 66 8.2 46.7 14.66 0.577
09:53 1029 30.39 858 25.34 14.6 58.2 68 8.8 47.9 14.83 0.584
09:54 1029 30.39 858 25.34 14.6 58.3 68 8.9 48 14.93 0.588
09:55 1029 30.39 858 25.34 14.4 57.9 70 9.1 48.4 14.75 0.581
09:56 1029 30.39 858 25.34 14.2 57.5 67 8.2 46.8 14.53 0.572
09:57 1029 30.39 858 25.34 13.9 57 66 7.8 46 14.25 0.561
09:58 1029 30.39 858 25.34 13.8 56.8 66 7.6 45.7 14.19 0.559
09:59 1029 30.39 858 25.34 13.8 56.8 68 8 46.4 14.16 0.557
10:00 1029 30.39 858 25.34 13.9 57 68 8.2 46.8 14.28 0.562
10:01 1029 30.39 858 25.34 14 57.3 71 8.8 47.8 14.36 0.565
10:02 1029 30.39 858 25.34 14.2 57.5 65 7.8 46.1 14.51 0.571
10:03 1029 30.39 858 25.34 14.2 57.5 66 7.9 46.2 14.53 0.572
10:04 1029 30.39 858 25.34 14.2 57.6 68 8.4 47.1 14.56 0.573
10:05 1029 30.39 858 25.34 14.4 57.9 64 7.7 45.9 14.69 0.578
10:06 1029 30.39 858 25.34 14.3 57.7 68 8.6 47.4 14.65 0.577
10:07 1029 30.39 858 25.34 14.3 57.8 72 9.3 48.8 14.75 0.581
10:08 1029 30.39 858 25.34 14.4 58 66 8.3 47 14.89 0.586
10:09 1029 30.39 858 25.34 14.5 58.1 66 8.2 46.8 14.9 0.587
10:10 1029 30.39 858 25.34 14.6 58.3 65 8.1 46.7 14.95 0.589
10:11 1029 30.39 858 25.34 14.8 58.7 66 8.5 47.4 15.16 0.597
10:12 1029 30.39 858 25.34 15 59 63 8.2 46.7 15.19 0.598
10:13 1029 30.39 858 25.34 15 58.9 68 9.1 48.4 15.04 0.592
10:14 1029 30.39 858 25.34 14.8 58.7 65 8.4 47.2 14.92 0.587
10:15 1029 30.39 858 25.34 14.7 58.4 68 9 48.2 14.8 0.583
10:16 1029 30.39 858 25.34 14.7 58.5 64 8 46.4 14.76 0.581
10:17 1029 30.39 858 25.34 14.6 58.3 65 8.3 46.9 14.58 0.574
10:18 1029 30.39 858 25.34 14.6 58.2 70 9.2 48.5 14.5 0.571
10:19 1029 30.39 858 25.34 14.6 58.3 67 8.5 47.3 14.54 0.572
10:20 1029 30.39 858 25.34 14.6 58.2 66 8.3 47 14.63 0.576
10:21 1029 30.39 858 25.34 14.6 58.4 66 8.5 47.2 14.78 0.582
10:22 1029 30.39 858 25.34 14.7 58.5 67 8.7 47.7 15 0.591
10:23 1029 30.39 858 25.34 14.9 58.8 68 9 48.3 15.16 0.597
10:24 1029 30.39 858 25.34 14.9 58.7 66 8.5 47.4 15.11 0.595
10:25 1029 30.39 858 25.34 14.8 58.6 64 8 46.4 14.98 0.59
10:26 1029 30.39 858 25.34 14.6 58.4 65 8.3 46.9 14.87 0.585
10:27 1029 30.39 858 25.34 14.8 58.6 63 7.8 46.1 15.02 0.591
10:28 1029 30.39 858 25.34 14.8 58.6 62 7.7 45.8 15.1 0.594
10:29 1029 30.39 858 25.34 14.9 58.8 63 8.1 46.6 15.15 0.596
10:30 1029 30.39 858 25.34 15.1 59.1 67 9.1 48.4 15.38 0.606
10:31 1029 30.39 858 25.34 15.2 59.4 63 8.2 46.8 15.58 0.613
10:32 1029 30.39 858 25.34 15.3 59.5 62 8.2 46.7 15.63 0.615
10:33 1029 30.39 858 25.34 15.2 59.3 66 8.9 48 15.62 0.615
10:34 1029 30.39 858 25.34 15.3 59.6 70 10 49.9 15.65 0.616
10:35 1029 30.39 858 25.34 15.4 59.8 68 9.7 49.4 15.58 0.613
10:36 1029 30.39 858 25.34 15.3 59.6 63 8.4 47 15.41 0.607
10:37 1029 30.39 858 25.34 15.3 59.5 64 8.7 47.6 15.33 0.604
10:38 1029 30.39 858 25.34 15.2 59.3 64 8.5 47.4 15.33 0.604
10:39 1029 30.39 858 25.34 15.2 59.4 65 8.7 47.7 15.29 0.602
10:40 1029 30.39 858 25.34 15.2 59.4 63 8.4 47.2 15.31 0.603
10:41 1029 30.39 858 25.34 15.3 59.6 62 8.1 46.6 15.31 0.603
10:42 1029 30.39 858 25.34 15.5 59.8 63 8.5 47.3 15.42 0.607
10:43 1029 30.39 858 25.34 15.7 60.2 62 8.5 47.3 15.59 0.614
10:44 1029 30.39 858 25.34 15.7 60.3 64 9.1 48.3 15.83 0.623
10:45 1029 30.39 858 25.34 15.6 60.1 64 8.8 47.9 15.74 0.62
10:46 1029 30.39 858 25.34 15.4 59.7 64 8.7 47.7 15.63 0.615
10:47 1029 30.39 858 25.34 15.2 59.4 67 9.1 48.4 15.49 0.61
10:48 1029 30.39 858 25.34 15.1 59.2 66 8.9 48.1 15.47 0.609
10:49 1029 30.39 858 25.34 15.1 59.3 65 8.8 47.8 15.47 0.609
10:50 1029 30.39 858 25.34 15.1 59.2 67 9.1 48.3 15.49 0.61
10:51 1029 30.39 858 25.34 15.2 59.3 68 9.3 48.8 15.51 0.611
10:52 1029 30.39 858 25.34 15.3 59.5 64 8.6 47.4 15.48 0.609
10:53 1029 30.39 858 25.34 15.3 59.5 65 8.8 47.9 15.43 0.607
10:54 1029 30.39 858 25.34 15.4 59.6 65 8.9 48 15.49 0.61
10:55 1029 30.39 858 25.34 15.5 59.9 71 10.3 50.6 15.57 0.613
10:56 1029 30.39 858 25.34 15.7 60.3 65 9.3 48.8 15.88 0.625
10:57 1029 30.39 858 25.34 16 60.8 62 8.8 47.9 16.1 0.634
10:58 1029 30.39 858 25.34 16.1 61.1 61 8.7 47.7 16.15 0.636
10:59 1029 30.39 858 25.34 16.1 61 60 8.3 47 16.32 0.643
11:00 1029 30.39 858 25.34 16.2 61.1 62 9 48.3 16.29 0.641
11:01 1029 30.39 858 25.34 16.1 60.9 64 9.2 48.6 16.09 0.633
11:02 1029 30.39 858 25.34 16 60.8 61 8.6 47.4 16.09 0.633
11:03 1029 30.39 858 25.34 15.9 60.5 61 8.5 47.3 16.04 0.631
11:04 1029 30.39 858 25.34 15.8 60.4 62 8.5 47.3 15.99 0.63
11:05 1029 30.39 858 25.34 15.8 60.4 62 8.7 47.6 15.83 0.623
11:06 1029 30.39 858 25.34 15.9 60.5 65 9.4 48.8 15.95 0.628
11:07 1029 30.39 858 25.34 16 60.9 63 9.1 48.4 16.12 0.635
11:08 1029 30.39 858 25.34 16.2 61.1 65 9.7 49.5 16.33 0.643
11:09 1029 30.39 858 25.34 16.4 61.4 66 10 50 16.47 0.648
11:10 1029 30.39 858 25.34 16.4 61.5 61 8.9 48 16.53 0.651
11:11 1029 30.39 858 25.34 16.2 61.2 67 10.1 50.2 16.4 0.646
11:12 1029 30.39 858 25.34 16.1 61 61 8.8 47.8 16.3 0.642
11:13 1029 30.39 858 25.34 16.1 60.9 64 9.4 48.9 16.29 0.641
11:14 1029 30.39 858 25.34 16.1 60.9 60 8.5 47.3 16.26 0.64
11:15 1029 30.39 858 25.34 16 60.7 61 8.5 47.3 16.1 0.634
11:16 1029 30.39 858 25.34 15.9 60.6 65 9.4 49 16.11 0.634
11:17 1029 30.39 858 25.34 15.9 60.6 62 8.6 47.5 16.1 0.634
11:18 1029 30.39 858 25.34 15.9 60.6 63 8.9 48 15.98 0.629
11:19 1029 30.39 858 25.34 15.9 60.5 64 9.2 48.5 15.94 0.628
11:20 1029 30.39 858 25.34 15.9 60.7 63 9 48.3 16.13 0.635
11:21 1029 30.39 858 25.34 16 60.7 60 8.4 47.1 16.21 0.638
11:22 1029 30.39 858 25.34 15.9 60.6 63 8.9 48 16.18 0.637
11:23 1029 30.39 858 25.34 15.9 60.7 64 9.2 48.6 16.25 0.64
11:24 1028 30.36 858 25.34 15.9 60.7 60 8.3 46.9 16.33 0.643
11:25 1028 30.36 858 25.34 15.9 60.7 66 9.6 49.3 16.36 0.644
11:26 1028 30.36 858 25.34 16.1 60.9 61 8.5 47.4 16.37 0.644
11:27 1028 30.36 858 25.34 16.1 60.9 60 8.4 47.2 16.24 0.639
11:28 1028 30.36 858 25.34 16.1 61 65 9.5 49.1 16.2 0.638
11:29 1028 30.36 858 25.34 16.2 61.1 60 8.5 47.2 16.37 0.644
11:30 1028 30.36 858 25.34 16.1 61 67 10.1 50.1 16.38 0.645
11:31 1028 30.36 858 25.34 16.2 61.1 61 8.7 47.7 16.4 0.646
11:32 1028 30.36 858 25.34 16.2 61.2 59 8.3 47 16.39 0.645
11:33 1028 30.36 858 25.34 16.2 61.2 64 9.4 48.9 16.32 0.643
11:34 1028 30.36 858 25.34 16.3 61.3 63 9.4 48.9 16.46 0.648
11:35 1028 30.36 858 25.34 16.3 61.4 60 8.7 47.6 16.48 0.649
11:36 1028 30.36 858 25.34 16.3 61.4 64 9.6 49.3 16.43 0.647
11:37 1028 30.36 858 25.34 16.3 61.4 62 9 48.2 16.47 0.648
11:38 1028 30.36 858 25.34 16.4 61.4 68 10.5 50.8 16.54 0.651
11:39 1028 30.36 858 25.34 16.5 61.8 58 8.4 47.2 16.69 0.657
11:40 1028 30.36 858 25.34 16.6 61.8 63 9.6 49.2 16.56 0.652
11:41 1028 30.36 858 25.34 16.6 61.8 67 10.4 50.7 16.75 0.659
11:42 1028 30.36 858 25.34 16.7 62.1 60 8.9 48 16.85 0.663
11:43 1028 30.36 858 25.34 16.7 62.1 60 9.1 48.4 16.77 0.66
11:44 1028 30.36 858 25.34 16.7 62 63 9.6 49.2 16.69 0.657
11:45 1028 30.36 858 25.34 16.7 62 61 9.1 48.4 16.73 0.659
11:46 1028 30.36 858 25.34 16.7 62 59 8.7 47.7 16.73 0.659
11:47 1028 30.36 858 25.34 16.7 62 62 9.5 49.1 16.68 0.657
11:48 1028 30.36 858 25.34 16.8 62.2 59 8.9 48 16.83 0.663
11:49 1028 30.36 858 25.34 16.9 62.5 57 8.5 47.3 16.99 0.669
11:50 1028 30.36 857 25.31 17 62.6 58 8.7 47.6 17.12 0.674
11:51 1028 30.36 858 25.34 17.1 62.7 58 8.9 48 17.11 0.674
11:52 1028 30.36 857 25.31 17.1 62.7 57 8.6 47.5 17.12 0.674
11:53 1028 30.36 857 25.31 17.2 62.9 59 9.1 48.3 17.2 0.677
11:54 1028 30.36 857 25.31 17.1 62.8 57 8.7 47.6 17.15 0.675
11:55 1028 30.36 857 25.31 17.1 62.7 58 8.8 47.8 17.13 0.674
11:56 1028 30.36 857 25.31 17.1 62.7 59 9 48.2 17.13 0.674
11:57 1028 30.36 857 25.31 17.1 62.7 59 9 48.1 17.22 0.678
11:58 1028 30.36 857 25.31 17.1 62.8 58 8.9 47.9 17.27 0.68
11:59 1028 30.36 857 25.31 17.2 62.9 59 9.3 48.7 17.36 0.683
12:00 1028 30.36 857 25.31 17.3 63.1 59 9.3 48.8 17.49 0.689
12:01 1028 30.36 857 25.31 17.3 63.2 58 9.2 48.5 17.59 0.693
12:02 1028 30.36 857 25.31 17.3 63.1 58 9 48.1 17.58 0.692
12:03 1028 30.36 857 25.31 17.1 62.8 60 9.4 49 17.56 0.691
12:04 1028 30.36 857 25.31 17.1 62.7 64 10.3 50.6 17.51 0.689
12:05 1028 30.36 857 25.31 17.1 62.7 63 10 50 17.53 0.69
12:06 1028 30.36 857 25.31 17.1 62.9 61 9.7 49.4 17.6 0.693
12:07 1028 30.36 857 25.31 17.2 62.9 60 9.6 49.2 17.54 0.691
12:08 1028 30.36 857 25.31 17.2 62.9 64 10.4 50.8 17.56 0.691
12:09 1028 30.36 857 25.31 17.3 63.2 59 9.4 48.8 17.7 0.697
12:10 1028 30.36 857 25.31 17.4 63.3 57 8.9 48 17.75 0.699
12:11 1028 30.36 857 25.31 17.3 63.2 59 9.4 48.9 17.73 0.698
12:12 1028 30.36 857 25.31 17.4 63.3 57 8.9 48 17.66 0.695
12:13 1028 30.36 857 25.31 17.5 63.4 62 10.1 50.2 17.62 0.694
12:14 1028 30.36 857 25.31 17.5 63.4 61 9.9 49.9 17.67 0.696
12:15 1028 30.36 857 25.31 17.6 63.6 58 9.4 48.9 17.72 0.698
12:16 1028 30.36 857 25.31 17.7 63.8 60 9.8 49.6 17.93 0.706
12:17 1028 30.36 857 25.31 17.9 64.2 56 9.2 48.5 18.12 0.713
12:18 1028 30.36 857 25.31 18 64.3 55 9 48.2 18.08 0.712
12:19 1028 30.36 857 25.31 17.9 64.2 55 9 48.1 17.98 0.708
12:20 1028 30.36 857 25.31 17.8 64 60 9.9 49.9 17.94 0.706
12:21 1028 30.36 857 25.31 17.9 64.1 62 10.6 51.1 18.04 0.71
12:22 1028 30.36 857 25.31 18 64.3 63 11 51.7 18.14 0.714
12:23 1028 30.36 857 25.31 18 64.3 60 10.3 50.5 18.22 0.717
12:24 1028 30.36 857 25.31 18 64.4 57 9.5 49.1 18.2 0.717
12:25 1028 30.36 857 25.31 17.9 64.3 54 8.6 47.4 18.02 0.709
12:26 1028 30.36 857 25.31 17.8 64.1 55 8.7 47.6 17.93 0.706
12:27 1028 30.36 857 25.31 17.8 64 56 9 48.2 17.88 0.704
12:28 1028 30.36 857 25.31 17.7 63.9 52 7.9 46.2 17.84 0.702
12:29 1028 30.36 857 25.31 17.7 63.9 54 8.4 47.2 17.93 0.706
12:30 1028 30.36 857 25.31 17.7 63.8 55 8.7 47.7 17.93 0.706
12:31 1028 30.36 857 25.31 17.7 63.9 60 9.9 49.9 17.88 0.704
12:32 1028 30.36 857 25.31 17.7 63.9 51 7.7 45.8 17.94 0.706
12:33 1028 30.36 857 25.31 17.8 64 54 8.4 47.1 17.98 0.708
12:34 1028 30.36 857 25.31 17.9 64.1 52 7.8 46.1 17.97 0.707
12:35 1028 30.36 857 25.31 17.9 64.3 51 7.7 45.9 18.06 0.711
12:36 1028 30.36 857 25.31 18 64.4 56 9.1 48.4 18.19 0.716
12:37 1028 30.36 857 25.31 18.1 64.5 48 7 44.5 18.35 0.722
12:38 1028 30.36 857 25.31 18.1 64.6 51 7.8 46.1 18.35 0.722
12:39 1028 30.36 857 25.31 18.2 64.7 54 8.7 47.7 18.43 0.726
12:40 1028 30.36 857 25.31 18.3 64.9 53 8.6 47.5 18.41 0.725
12:41 1028 30.36 857 25.31 18.2 64.7 55 9 48.3 18.31 0.721
12:42 1028 30.36 857 25.31 18.1 64.6 54 8.9 48 18.28 0.72
12:43 1028 30.36 857 25.31 18.1 64.5 60 10.3 50.6 18.27 0.719
12:44 1028 30.36 857 25.31 18.2 64.7 53 8.5 47.3 18.48 0.728
12:45 1028 30.36 857 25.31 18.3 64.9 54 8.9 48 18.51 0.729
12:46 1027 30.33 857 25.31 18.4 65.1 50 8 46.4 18.66 0.735
12:47 1027 30.33 857 25.31 18.5 65.4 46 6.8 44.3 18.69 0.736
12:48 1027 30.33 857 25.31 18.5 65.2 49 7.8 46 18.65 0.734
12:49 1027 30.33 857 25.31 18.5 65.3 47 7 44.6 18.69 0.736
12:50 1027 30.33 857 25.31 18.5 65.2 54 9.1 48.4 18.74 0.738
12:51 1027 30.33 857 25.31 18.6 65.5 58 10.3 50.5 19.01 0.748
12:52 1027 30.33 857 25.31 18.9 66.1 45 7 44.5 19.21 0.756
12:53 1027 30.33 857 25.31 19 66.1 47 7.6 45.6 19.11 0.752
12:54 1027 30.33 857 25.31 19 66.2 46 7.3 45.2 19.13 0.753
12:55 1027 30.33 857 25.31 19 66.1 43 6.2 43.2 19.14 0.754
12:56 1027 30.33 857 25.31 19 66.2 47 7.4 45.4 19.15 0.754
12:57 1027 30.33 857 25.31 19 66.2 49 8.3 46.9 19.23 0.757
12:58 1027 30.33 857 25.31 19 66.1 53 9.3 48.8 19.32 0.761
12:59 1027 30.33 857 25.31 19.1 66.3 48 8 46.4 19.45 0.766
13:00 1027 30.33 857 25.31 19.1 66.5 47 7.8 46.1 19.45 0.766
13:01 1027 30.33 857 25.31 19.2 66.5 48 8.1 46.6 19.38 0.763
13:02 1027 30.33 857 25.31 19.2 66.6 48 8.1 46.6 19.32 0.761
13:03 1027 30.33 857 25.31 19.1 66.5 51 9 48.3 19.24 0.757
13:04 1027 30.33 857 25.31 19 66.2 48 7.9 46.2 19.09 0.752
13:05 1027 30.33 857 25.31 19 66.1 52 9.1 48.3 19.09 0.752
13:06 1027 30.33 857 25.31 19 66.2 46 7.3 45.1 19.15 0.754
13:07 1027 30.33 857 25.31 19 66.3 50 8.6 47.5 19.23 0.757
13:08 1027 30.33 856 25.28 19.2 66.5 44 6.6 43.9 19.29 0.759
13:09 1027 30.33 856 25.28 19.1 66.4 47 7.5 45.5 19.26 0.758
13:10 1027 30.33 856 25.28 19.2 66.5 57 10.6 51 19.39 0.763
13:11 1027 30.33 856 25.28 19.3 66.8 51 9.1 48.4 19.57 0.77
13:12 1027 30.33 856 25.28 19.5 67.1 52 9.5 49.2 19.73 0.777
13:13 1027 30.33 856 25.28 19.6 67.3 43 6.8 44.3 19.77 0.778
13:14 1027 30.33 856 25.28 19.6 67.2 40 5.7 42.3 19.63 0.773
13:15 1027 30.33 856 25.28 19.5 67.1 47 8 46.4 19.53 0.769
13:16 1027 30.33 856 25.28 19.4 66.9 41 6.1 43 19.43 0.765
13:17 1027 30.33 856 25.28 19.4 67 40 5.7 42.3 19.52 0.769
13:18 1027 30.33 856 25.28 19.5 67.1 42 6.4 43.4 19.57 0.77
13:19 1027 30.33 856 25.28 19.5 67.2 48 8.5 47.3 19.71 0.776
13:20 1027 30.33 856 25.28 19.7 67.5 42 6.5 43.7 20.02 0.788
13:21 1027 30.33 856 25.28 19.7 67.5 40 5.8 42.4 20.04 0.789
13:22 1027 30.33 856 25.28 19.5 67 47 8 46.3 19.89 0.783
13:23 1027 30.33 856 25.28 19.4 66.8 45 7.1 44.9 19.85 0.781
13:24 1027 30.33 856 25.28 19.5 67.1 41 6 42.9 19.96 0.786
13:25 1027 30.33 856 25.28 19.7 67.4 49 8.8 47.9 19.94 0.785
13:26 1027 30.33 856 25.28 19.7 67.5 42 6.5 43.7 19.98 0.787
13:27 1027 30.33 856 25.28 19.7 67.4 42 6.5 43.6 19.82 0.78
13:28 1027 30.33 856 25.28 19.5 67.1 44 7.1 44.8 19.67 0.774
13:29 1027 30.33 856 25.28 19.6 67.2 48 8.4 47.1 19.9 0.783
13:30 1027 30.33 856 25.28 19.7 67.5 42 6.4 43.6 20.02 0.788
13:31 1027 30.33 856 25.28 19.6 67.3 42 6.7 44 19.87 0.782
13:32 1027 30.33 856 25.28 19.6 67.3 47 8.2 46.7 19.87 0.782
13:33 1027 30.33 856 25.28 19.7 67.4 41 6.2 43.1 19.94 0.785
13:34 1027 30.33 856 25.28 19.7 67.4 46 7.8 46.1 19.93 0.785
13:35 1027 30.33 856 25.28 19.8 67.6 46 7.9 46.3 20.04 0.789
13:36 1027 30.33 856 25.28 20 67.9 42 6.9 44.4 20.27 0.798
13:37 1027 30.33 856 25.28 20 68.1 39 5.8 42.5 20.25 0.797
13:38 1027 30.33 856 25.28 20 67.9 44 7.3 45.2 20.13 0.793
13:39 1027 30.33 856 25.28 19.8 67.7 40 6 42.8 20.06 0.79
13:40 1027 30.33 856 25.28 19.7 67.5 40 6 42.8 19.93 0.785
13:41 1027 30.33 856 25.28 19.7 67.4 45 7.7 45.8 19.94 0.785
13:42 1027 30.33 856 25.28 19.8 67.6 40 6.1 43 20.03 0.789
13:43 1027 30.33 856 25.28 19.7 67.4 34 3.5 38.3 20 0.787
13:44 1027 30.33 856 25.28 19.7 67.4 41 6.1 43 20.04 0.789
13:45 1027 30.33 856 25.28 19.7 67.5 43 7.1 44.7 20.09 0.791
13:46 1027 30.33 856 25.28 19.8 67.6 48 8.5 47.3 20.14 0.793
13:47 1027 30.33 856 25.28 19.8 67.7 55 10.6 51.2 20.21 0.796
13:48 1027 30.33 856 25.28 20 67.9 41 6.3 43.4 20.36 0.802
13:49 1027 30.33 856 25.28 20 68 43 7 44.7 20.36 0.802
13:50 1027 30.33 856 25.28 19.9 67.8 45 7.8 46.1 20.34 0.801
13:51 1027 30.33 856 25.28 19.9 67.9 43 7.2 44.9 20.32 0.8
13:52 1027 30.33 856 25.28 20 68 41 6.3 43.4 20.44 0.805
13:53 1027 30.33 856 25.28 20.1 68.2 42 7 44.6 20.44 0.805
13:54 1027 30.33 856 25.28 20.2 68.4 34 4 39.2 20.55 0.809
13:55 1027 30.33 856 25.28 20.2 68.4 38 5.6 42.1 20.62 0.812
13:56 1027 30.33 856 25.28 20.3 68.6 45 8.1 46.6 20.64 0.813
13:57 1027 30.33 856 25.28 20.3 68.6 37 5.4 41.7 20.67 0.814
13:58 1027 30.33 856 25.28 20.4 68.6 34 4 39.2 20.72 0.816
13:59 1027 30.33 856 25.28 20.4 68.8 45 8.2 46.8 20.81 0.819
14:00 1027 30.33 856 25.28 20.5 68.8 40 6.6 43.9 20.76 0.817
14:01 1027 30.33 856 25.28 20.5 68.9 43 7.6 45.7 20.76 0.817
14:02 1027 30.33 856 25.28 20.5 68.8 43 7.7 45.9 20.75 0.817
14:03 1027 30.33 856 25.28 20.5 68.9 45 8.4 47.1 20.79 0.819
14:04 1027 30.33 856 25.28 20.5 68.9 39 6.4 43.5 20.81 0.819
14:05 1027 30.33 856 25.28 20.3 68.6 38 5.5 42 20.62 0.812
14:06 1027 30.33 856 25.28 20.2 68.4 36 5 41 20.52 0.808
14:07 1027 30.33 856 25.28 20.2 68.4 39 6 42.9 20.62 0.812
14:08 1027 30.33 856 25.28 20.4 68.7 36 5.2 41.4 20.7 0.815
14:09 1027 30.33 856 25.28 20.5 68.9 34 4.5 40 20.73 0.816
14:10 1027 30.33 856 25.28 20.5 68.9 38 5.9 42.7 20.79 0.819
14:11 1027 30.33 856 25.28 20.5 68.9 42 7.3 45.1 20.73 0.816
14:12 1027 30.33 856 25.28 20.5 68.9 31 3.2 37.7 20.73 0.816
14:13 1027 30.33 856 25.28 20.4 68.7 39 6.1 43 20.52 0.808
14:14 1027 30.33 856 25.28 20.4 68.7 32 3.1 37.6 20.68 0.814
14:15 1027 30.33 856 25.28 20.5 68.8 32 3.4 38.1 20.65 0.813
14:16 1027 30.33 856 25.28 20.4 68.8 38 5.8 42.5 20.69 0.815
14:17 1027 30.33 856 25.28 20.5 69 32 3.6 38.5 20.83 0.82
14:18 1027 30.33 856 25.28 20.6 69 31 3.1 37.5 20.9 0.823
14:19 1027 30.33 856 25.28 20.4 68.7 33 3.6 38.5 20.85 0.821
14:20 1027 30.33 856 25.28 20.4 68.7 37 5.5 41.9 20.97 0.826
14:21 1027 30.33 856 25.28 20.6 69 32 3.3 37.9 21.12 0.831
14:22 1027 30.33 856 25.28 20.7 69.2 31 3.1 37.6 20.96 0.825
14:23 1027 30.33 856 25.28 20.6 69.1 33 3.8 38.8 20.89 0.822
14:24 1027 30.33 856 25.28 20.6 69.1 32 3.4 38.1 20.84 0.82
14:25 1027 30.33 856 25.28 20.5 68.9 32 3.3 38 20.77 0.818
14:26 1027 30.33 856 25.28 20.5 68.9 33 3.7 38.6 20.77 0.818
14:27 1027 30.33 856 25.28 20.6 69.1 38 6.1 42.9 20.9 0.823
14:28 1027 30.33 856 25.28 20.8 69.4 41 7.1 44.8 21.08 0.83
14:29 1027 30.33 856 25.28 21 69.7 42 7.8 46 21.31 0.839
14:30 1027 30.33 856 25.28 21 69.8 31 3.4 38.2 21.23 0.836
14:31 1027 30.33 856 25.28 20.9 69.6 33 4 39.3 21.05 0.829
14:32 1027 30.33 856 25.28 20.9 69.6 38 6.3 43.4 21.12 0.831
14:33 1027 30.33 856 25.28 20.9 69.7 36 5.4 41.7 21.11 0.831
14:34 1027 30.33 856 25.28 21.1 69.9 32 4 39.1 21.25 0.837
14:35 1027 30.33 856 25.28 21.2 70.1 32 4 39.2 21.33 0.84
14:36 1027 30.33 856 25.28 21.3 70.3 39 7 44.7 21.4 0.843
14:37 1027 30.33 856 25.28 21.3 70.3 32 3.9 39 21.45 0.844
14:38 1027 30.33 856 25.28 21.3 70.4 44 8.8 47.8 21.52 0.847
14:39 1027 30.33 856 25.28 21.4 70.5 31 3.6 38.5 21.61 0.851
14:40 1027 30.33 856 25.28 21.4 70.5 30 3.3 38 21.47 0.845
14:41 1026 30.3 856 25.28 21.3 70.4 31 3.6 38.4 21.53 0.848
14:42 1026 30.3 856 25.28 21.4 70.4 38 6.8 44.2 21.44 0.844
14:43 1026 30.3 856 25.28 21.3 70.3 39 6.8 44.3 21.37 0.841
14:44 1026 30.3 856 25.28 21.3 70.3 33 4.7 40.5 21.32 0.839
14:45 1026 30.3 856 25.28 21.3 70.4 44 8.7 47.7 21.46 0.845
14:46 1026 30.3 856 25.28 21.4 70.5 37 6.1 43 21.63 0.852
14:47 1026 30.3 856 25.28 21.5 70.7 31 3.8 38.9 21.75 0.856
14:48 1026 30.3 856 25.28 21.5 70.6 33 4.7 40.4 21.75 0.856
14:49 1026 30.3 856 25.28 21.5 70.6 31 3.8 38.8 21.81 0.859
14:50 1026 30.3 856 25.28 21.5 70.6 33 4.8 40.6 21.82 0.859
14:51 1026 30.3 856 25.28 21.4 70.6 32 4.2 39.5 21.73 0.856
14:52 1026 30.3 856 25.28 21.5 70.6 34 5.3 41.5 21.74 0.856
14:53 1026 30.3 856 25.28 21.3 70.3 41 7.7 45.9 21.64 0.852
14:54 1026 30.3 856 25.28 21.3 70.3 37 6.3 43.3 21.72 0.855
14:55 1026 30.3 856 25.28 21.3 70.3 38 6.5 43.7 21.74 0.856
14:56 1026 30.3 856 25.28 21.3 70.3 35 5.4 41.7 21.67 0.853
14:57 1026 30.3 856 25.28 21.2 70.2 34 4.7 40.5 21.57 0.849
14:58 1026 30.3 856 25.28 21.3 70.3 32 4 39.2 21.62 0.851
14:59 1026 30.3 856 25.28 21.3 70.3 37 6.1 42.9 21.66 0.853
15:00 1026 30.3 856 25.28 21.3 70.3 32 4.1 39.3 21.6 0.85
15:01 1026 30.3 856 25.28 21.4 70.4 39 7.1 44.8 21.6 0.85
15:02 1026 30.3 856 25.28 21.4 70.5 35 5.4 41.7 21.58 0.85
15:03 1026 30.3 856 25.28 21.3 70.4 33 4.6 40.3 21.55 0.848
15:04 1026 30.3 856 25.28 21.3 70.3 35 5.4 41.7 21.46 0.845
15:05 1026 30.3 856 25.28 21.2 70.2 38 6.6 43.9 21.45 0.844
15:06 1026 30.3 856 25.28 21.3 70.3 43 8.4 47.2 21.54 0.848
15:07 1026 30.3 856 25.28 21.4 70.5 37 6.2 43.1 21.66 0.853
15:08 1026 30.3 856 25.28 21.3 70.4 32 4 39.3 21.62 0.851
15:09 1026 30.3 856 25.28 21.2 70.2 32 4.2 39.6 21.52 0.847
15:10 1026 30.3 856 25.28 21.1 70 32 4 39.2 21.47 0.845
15:11 1026 30.3 856 25.28 21 69.9 33 4.4 39.8 21.46 0.845
15:12 1026 30.3 856 25.28 21 69.7 39 6.6 43.9 21.42 0.843
15:13 1026 30.3 856 25.28 21 69.7 37 6 42.8 21.42 0.843
15:14 1026 30.3 855 25.25 21 69.8 37 6.1 42.9 21.52 0.847
15:15 1026 30.3 855 25.25 21 69.9 33 4.2 39.6 21.55 0.848
15:16 1026 30.3 855 25.25 21 69.8 31 3.4 38.2 21.39 0.842
15:17 1026 30.3 855 25.25 20.9 69.5 31 3.5 38.3 21.25 0.837
15:18 1026 30.3 855 25.25 20.9 69.6 35 5.2 41.3 21.37 0.841
15:19 1026 30.3 855 25.25 21 69.9 32 3.8 38.9 21.54 0.848
15:20 1026 30.3 855 25.25 21.2 70.1 38 6.6 43.9 21.7 0.854
15:21 1026 30.3 855 25.25 21.3 70.3 34 4.9 40.8 21.8 0.858
15:22 1026 30.3 855 25.25 21.3 70.3 33 4.4 40 21.72 0.855
15:23 1026 30.3 855 25.25 21.2 70.1 34 5 41.1 21.66 0.853
15:24 1026 30.3 855 25.25 21.2 70.2 37 6.2 43.1 21.73 0.856
15:25 1026 30.3 855 25.25 21.4 70.6 32 4.3 39.7 21.88 0.861
15:26 1026 30.3 855 25.25 21.5 70.6 32 4.3 39.7 21.99 0.866
15:27 1026 30.3 855 25.25 21.4 70.5 35 5.6 42 21.88 0.861
15:28 1026 30.3 855 25.25 21.4 70.4 32 4.1 39.3 21.86 0.861
15:29 1026 30.3 855 25.25 21.4 70.6 31 3.9 39 21.87 0.861
15:30 1026 30.3 855 25.25 21.6 70.8 38 7 44.5 21.99 0.866
15:31 1026 30.3 855 25.25 21.7 71.1 41 8.1 46.5 22.06 0.869
15:32 1026 30.3 855 25.25 21.9 71.3 40 7.8 46.1 22.16 0.872
15:33 1026 30.3 855 25.25 22 71.5 41 8.2 46.8 22.21 0.874
15:34 1026 30.3 855 25.25 22 71.6 35 6.1 42.9 22.16 0.872
15:35 1026 30.3 855 25.25 21.9 71.5 32 4.5 40.2 22.03 0.867
15:36 1026 30.3 855 25.25 22 71.5 36 6.6 43.8 22.12 0.871
15:37 1026 30.3 855 25.25 21.9 71.4 40 8 46.3 22.16 0.872
15:38 1026 30.3 855 25.25 21.8 71.2 34 5.3 41.5 22.09 0.87
15:39 1026 30.3 855 25.25 21.7 71 33 5.1 41.1 21.94 0.864
15:40 1026 30.3 855 25.25 21.6 70.8 36 6 42.7 21.89 0.862
15:41 1026 30.3 855 25.25 21.6 70.9 37 6.6 44 21.87 0.861
15:42 1026 30.3 855 25.25 21.8 71.2 39 7.3 45.1 22.04 0.868
15:43 1026 30.3 855 25.25 22.1 71.7 36 6.5 43.8 22.28 0.877
15:44 1026 30.3 855 25.25 22.2 72 29 3.3 38 22.4 0.882
15:45 1026 30.3 855 25.25 22.2 72 34 5.9 42.7 22.41 0.882
15:46 1026 30.3 855 25.25 22.2 72 31 4.5 40.2 22.5 0.886
15:47 1026 30.3 855 25.25 22.1 71.7 38 7.3 45.2 22.42 0.883
15:48 1026 30.3 855 25.25 21.9 71.5 35 5.9 42.5 22.37 0.881
15:49 1026 30.3 855 25.25 21.9 71.5 39 7.5 45.6 22.28 0.877
15:50 1026 30.3 855 25.25 21.8 71.3 33 5 41.1 22.15 0.872
15:51 1026 30.3 855 25.25 21.7 71.1 32 4.5 40.1 22.09 0.87
15:52 1026 30.3 855 25.25 21.7 71 31 4.2 39.6 22.04 0.868
15:53 1026 30.3 855 25.25 21.7 71 32 4.3 39.7 22.11 0.87
15:54 1026 30.3 855 25.25 21.7 71 36 6 42.7 22.17 0.873
15:55 1026 30.3 855 25.25 21.8 71.2 30 3.6 38.6 22.23 0.875
15:56 1026 30.3 855 25.25 21.8 71.3 34 5.6 42.1 22.12 0.871
15:57 1026 30.3 855 25.25 21.9 71.4 42 8.4 47.1 22.1 0.87
15:58 1026 30.3 855 25.25 21.9 71.4 36 6.2 43.2 22.12 0.871
15:59 1026 30.3 855 25.25 21.8 71.2 35 5.8 42.5 22.03 0.867
16:00 1026 30.3 855 25.25 21.8 71.2 33 4.9 40.8 22.05 0.868
16:01 1026 30.3 855 25.25 21.7 71.1 29 3.3 38 22.03 0.867
16:02 1026 30.3 855 25.25 21.6 71 31 3.8 38.8 21.93 0.863
16:03 1026 30.3 855 25.25 21.6 70.8 35 5.4 41.8 21.86 0.861
16:04 1026 30.3 855 25.25 21.7 71.1 33 5 41 21.94 0.864
16:05 1026 30.3 855 25.25 21.8 71.2 32 4.7 40.5 21.9 0.862
16:06 1026 30.3 855 25.25 21.8 71.3 31 3.9 39.1 21.95 0.864
16:07 1026 30.3 855 25.25 21.9 71.5 33 5.1 41.1 22.05 0.868
16:08 1026 30.3 855 25.25 21.9 71.5 36 6.5 43.7 22.16 0.872
16:09 1026 30.3 855 25.25 21.9 71.4 34 5.7 42.2 22.14 0.872
16:10 1026 30.3 855 25.25 21.8 71.2 34 5.4 41.7 22.03 0.867
16:11 1026 30.3 855 25.25 21.7 71 41 8 46.3 22.03 0.867
16:12 1026 30.3 855 25.25 21.7 71.1 34 5.3 41.5 22.07 0.869
16:13 1026 30.3 855 25.25 21.7 71 31 4.2 39.5 22 0.866
16:14 1026 30.3 855 25.25 21.6 70.9 32 4.2 39.5 21.99 0.866
16:15 1026 30.3 855 25.25 21.6 70.9 28 2.6 36.6 21.99 0.866
16:16 1026 30.3 855 25.25 21.6 70.9 30 3.4 38.1 21.98 0.865
16:17 1026 30.3 855 25.25 21.7 71 31 4 39.2 22.03 0.867
16:18 1026 30.3 855 25.25 21.7 71 32 4.3 39.8 22.06 0.869
16:19 1026 30.3 855 25.25 21.7 71.1 30 3.7 38.6 22.17 0.873
16:20 1026 30.3 855 25.25 21.8 71.2 38 7.2 44.9 22.22 0.875
16:21 1026 30.3 855 25.25 22 71.5 32 4.9 40.9 22.33 0.879
16:22 1026 30.3 855 25.25 22 71.6 31 4.3 39.7 22.25 0.876
16:23 1026 30.3 855 25.25 22 71.6 35 6 42.8 22.25 0.876
16:24 1026 30.3 855 25.25 22 71.6 31 4.1 39.5 22.34 0.88
16:25 1026 30.3 855 25.25 22.1 71.8 41 8.5 47.3 22.45 0.884
16:26 1026 30.3 855 25.25 22.2 72 34 6 42.8 22.57 0.889
16:27 1026 30.3 855 25.25 22.3 72.1 31 4.6 40.3 22.62 0.891
16:28 1026 30.3 855 25.25 22.3 72.2 29 3.6 38.5 22.71 0.894
16:29 1026 30.3 855 25.25 22.4 72.3 33 5.7 42.2 22.77 0.896
16:30 1026 30.3 855 25.25 22.6 72.6 32 5.2 41.3 22.9 0.902
16:31 1026 30.3 855 25.25 22.5 72.6 27 2.8 37 22.92 0.902
16:32 1026 30.3 855 25.25 22.5 72.4 31 4.6 40.3 22.73 0.895
16:33 1026 30.3 855 25.25 22.4 72.3 28 3.4 38 22.69 0.893
16:34 1026 30.3 855 25.25 22.4 72.3 26 2 35.6 22.56 0.888
16:35 1026 30.3 855 25.25 22.3 72.2 32 4.8 40.7 22.4 0.882
16:36 1026 30.3 855 25.25 22.3 72.1 28 3.1 37.6 22.43 0.883
16:37 1026 30.3 855 25.25 22.3 72.1 27 2.8 37 22.54 0.887
16:38 1026 30.3 855 25.25 22.2 72 28 3 37.4 22.61 0.89
16:39 1026 30.3 855 25.25 22.2 71.9 33 5.3 41.5 22.69 0.893
16:40 1026 30.3 855 25.25 22.3 72.2 36 6.5 43.7 22.72 0.894
16:41 1026 30.3 855 25.25 22.4 72.2 33 5.5 41.9 22.76 0.896
16:42 1026 30.3 855 25.25 22.3 72.2 32 5.1 41.2 22.61 0.89
16:43 1026 30.3 855 25.25 22.2 72 30 3.9 39.1 22.51 0.886
16:44 1026 30.3 855 25.25 22.2 72 31 4.6 40.3 22.5 0.886
16:45 1026 30.3 855 25.25 22.2 72 35 6.1 43.1 22.51 0.886
16:46 1026 30.3 855 25.25 22.2 72 27 2.6 36.7 22.55 0.888
16:47 1026 30.3 855 25.25 22.3 72.1 36 6.8 44.2 22.62 0.891
16:48 1026 30.3 855 25.25 22.4 72.3 30 4.3 39.8 22.82 0.898
16:49 1026 30.3 855 25.25 22.5 72.6 31 4.8 40.6 22.93 0.903
16:50 1026 30.3 855 25.25 22.6 72.7 32 5.2 41.3 23.01 0.906
16:51 1026 30.3 855 25.25 22.6 72.7 32 5.3 41.5 23.01 0.906
16:52 1026 30.3 855 25.25 22.6 72.6 39 8.1 46.6 22.88 0.901
16:53 1026 30.3 855 25.25 22.5 72.6 29 3.9 39 22.69 0.893
16:54 1026 30.3 855 25.25 22.4 72.3 38 7.5 45.5 22.38 0.881
16:55 1026 30.3 855 25.25 22.3 72.1 31 4.7 40.5 22.33 0.879
16:56 1026 30.3 855 25.25 22.2 71.9 29 3.4 38.1 22.19 0.874
16:57 1026 30.3 855 25.25 22.1 71.8 34 5.6 42 22.17 0.873
16:58 1026 30.3 855 25.25 22.1 71.8 26 1.9 35.4 22.27 0.877
16:59 1026 30.3 855 25.25 22.2 71.9 33 5.5 42 22.27 0.877
17:00 1026 30.3 855 25.25 22.1 71.8 28 2.9 37.1 22.33 0.879
17:01 1026 30.3 855 25.25 22.1 71.9 29 3.6 38.5 22.4 0.882
17:02 1026 30.3 855 25.25 22.2 71.9 27 2.6 36.6 22.47 0.885
17:03 1026 30.3 855 25.25 22.3 72.1 31 4.5 40.1 22.58 0.889
17:04 1025 30.27 855 25.25 22.3 72.2 30 4.2 39.6 22.76 0.896
17:05 1025 30.27 855 25.25 22.3 72.2 28 3.1 37.6 22.85 0.9
17:06 1026 30.3 855 25.25 22.4 72.2 27 2.7 36.9 22.99 0.905
17:07 1025 30.27 855 25.25 22.4 72.4 29 3.6 38.6 23.11 0.91
17:08 1026 30.3 855 25.25 22.5 72.5 28 3.3 37.9 23.1 0.909
17:09 1026 30.3 855 25.25 22.5 72.4 31 4.6 40.4 23.03 0.907
17:10 1026 30.3 855 25.25 22.5 72.4 35 6.3 43.3 23.03 0.907
17:11 1026 30.3 855 25.25 22.5 72.5 34 6 42.8 23.08 0.909
17:12 1026 30.3 855 25.25 22.5 72.5 33 5.8 42.4 23.02 0.906
17:13 1026 30.3 855 25.25 22.5 72.4 31 4.7 40.4 22.97 0.904
17:14 1025 30.27 855 25.25 22.5 72.5 29 3.9 39 22.84 0.899
17:15 1026 30.3 855 25.25 22.6 72.6 30 4.4 39.9 22.76 0.896
17:16 1025 30.27 855 25.25 22.4 72.4 36 6.8 44.3 22.76 0.896
17:17 1026 30.3 855 25.25 22.4 72.3 35 6.5 43.6 22.78 0.897
17:18 1026 30.3 855 25.25 22.3 72.2 35 6.4 43.6 22.7 0.894
17:19 1026 30.3 855 25.25 22.2 71.9 33 5.2 41.4 22.59 0.889
17:20 1026 30.3 855 25.25 22.1 71.8 28 2.9 37.2 22.6 0.89
17:21 1026 30.3 855 25.25 22.1 71.9 33 5.1 41.2 22.6 0.89
17:22 1025 30.27 855 25.25 22.2 71.9 28 3 37.4 22.69 0.893
17:23 1025 30.27 855 25.25 22.2 72 31 4.4 39.8 22.76 0.896
17:24 1025 30.27 855 25.25 22.3 72.1 29 3.8 38.8 22.77 0.896
17:25 1025 30.27 855 25.25 22.3 72.1 27 2.8 37 22.77 0.896
17:26 1025 30.27 855 25.25 22.2 71.9 31 4.2 39.6 22.73 0.895
17:27 1025 30.27 855 25.25 22.2 72 32 5 41.1 22.73 0.895
17:28 1025 30.27 855 25.25 22.2 72 38 7.2 45 22.74 0.895
17:29 1025 30.27 855 25.25 22.3 72.1 31 4.7 40.5 22.77 0.896
17:30 1025 30.27 855 25.25 22.3 72.2 30 3.9 39 22.82 0.898
17:31 1025 30.27 855 25.25 22.3 72.1 29 3.7 38.6 22.78 0.897
17:32 1025 30.27 855 25.25 22.3 72.1 34 6 42.8 22.81 0.898
17:33 1025 30.27 855 25.25 22.3 72.1 30 4.1 39.4 22.83 0.899
17:34 1025 30.27 855 25.25 22.4 72.2 31 4.7 40.4 22.91 0.902
17:35 1025 30.27 855 25.25 22.4 72.3 30 4.2 39.5 22.97 0.904
17:36 1025 30.27 855 25.25 22.5 72.4 36 6.9 44.3 22.98 0.905
17:37 1025 30.27 855 25.25 22.4 72.3 31 4.9 40.7 22.92 0.902
17:38 1025 30.27 855 25.25 22.4 72.4 28 3.2 37.8 22.86 0.9
17:39 1025 30.27 855 25.25 22.4 72.3 35 6.3 43.3 22.78 0.897
17:40 1025 30.27 855 25.25 22.4 72.3 26 2.3 36.2 22.77 0.896
17:41 1025 30.27 855 25.25 22.4 72.4 27 2.8 37 22.74 0.895
17:42 1025 30.27 855 25.25 22.4 72.3 25 1.6 34.9 22.7 0.894
17:43 1025 30.27 855 25.25 22.5 72.5 29 4 39.2 22.85 0.9
17:44 1025 30.27 855 25.25 22.6 72.7 32 5.3 41.5 23.03 0.907
17:45 1025 30.27 855 25.25 22.7 72.9 26 2.6 36.7 23.2 0.913
17:46 1025 30.27 855 25.25 22.7 72.9 31 4.8 40.7 23.2 0.913
17:47 1025 30.27 855 25.25 22.7 72.8 25 1.8 35.2 23.16 0.912
17:48 1025 30.27 855 25.25 22.6 72.7 28 3.5 38.2 23.02 0.906
17:49 1025 30.27 855 25.25 22.5 72.5 36 7 44.5 22.96 0.904
17:50 1025 30.27 855 25.25 22.5 72.6 27 2.7 36.8 23.07 0.908
17:51 1025 30.27 855 25.25 22.5 72.5 32 5 41.1 23.02 0.906
17:52 1025 30.27 855 25.25 22.4 72.4 29 3.7 38.7 22.95 0.904
17:53 1025 30.27 855 25.25 22.3 72.2 35 6.3 43.3 22.82 0.898
17:54 1025 30.27 855 25.25 22.2 72 31 4.4 39.8 22.76 0.896
17:55 1025 30.27 855 25.25 22.2 71.9 33 5.3 41.5 22.68 0.893
17:56 1025 30.27 855 25.25 22.2 71.9 30 4.2 39.5 22.65 0.892
17:57 1025 30.27 855 25.25 22.2 71.9 30 3.9 39.1 22.69 0.893
17:58 1025 30.27 855 25.25 22.2 72 27 2.3 36.2 22.73 0.895
17:59 1025 30.27 855 25.25 22.3 72.1 29 3.6 38.6 22.78 0.897
18:00 1025 30.27 855 25.25 22.3 72.2 29 3.4 38.1 22.81 0.898
18:01 1025 30.27 854 25.22 22.3 72.2 32 4.9 40.8 22.82 0.898
18:02 1025 30.27 855 25.25 22.4 72.4 30 4.3 39.8 22.9 0.902
18:03 1025 30.27 854 25.22 22.4 72.4 33 5.7 42.2 23.01 0.906
18:04 1025 30.27 854 25.22 22.5 72.5 29 3.8 38.8 22.98 0.905
18:05 1025 30.27 854 25.22 22.4 72.4 29 3.6 38.4 22.94 0.903
18:06 1025 30.27 854 25.22 22.4 72.4 31 4.8 40.6 22.95 0.904
18:07 1025 30.27 854 25.22 22.4 72.4 30 4.1 39.4 22.97 0.904
18:08 1025 30.27 854 25.22 22.5 72.5 31 4.7 40.4 23 0.906
18:09 1025 30.27 854 25.22 22.6 72.6 35 6.4 43.6 23.07 0.908
18:10 1025 30.27 854 25.22 22.7 72.8 32 5.5 41.9 23.16 0.912
18:11 1025 30.27 854 25.22 22.6 72.7 33 5.6 42.1 23.12 0.91
18:12 1025 30.27 854 25.22 22.6 72.7 32 5.2 41.4 23.1 0.909
18:13 1025 30.27 854 25.22 22.5 72.6 28 3.3 37.9 23.08 0.909
18:14 1025 30.27 854 25.22 22.5 72.4 37 7.1 44.9 23 0.906
18:15 1025 30.27 854 25.22 22.4 72.4 29 3.6 38.4 23.02 0.906
18:16 1025 30.27 854 25.22 22.5 72.4 29 3.7 38.7 23.04 0.907
18:17 1025 30.27 854 25.22 22.5 72.5 27 2.9 37.3 22.98 0.905
18:18 1025 30.27 854 25.22 22.5 72.6 35 6.5 43.6 23.04 0.907
18:19 1025 30.27 854 25.22 22.6 72.6 32 5.1 41.1 23.08 0.909
18:20 1025 30.27 854 25.22 22.4 72.4 29 3.9 39 22.97 0.904
18:21 1025 30.27 854 25.22 22.3 72.2 28 3.1 37.7 22.83 0.899
18:22 1025 30.27 854 25.22 22.2 72 26 2.1 35.8 22.77 0.896
18:23 1025 30.27 854 25.22 22.3 72.1 30 4.2 39.5 22.76 0.896
18:24 1025 30.27 854 25.22 22.3 72.1 26 2.1 35.7 22.81 0.898
18:25 1025 30.27 854 25.22 22.3 72.1 27 2.8 37.1 22.78 0.897
18:26 1025 30.27 854 25.22 22.4 72.2 26 2.3 36.1 22.89 0.901
18:27 1025 30.27 854 25.22 22.4 72.2 34 6.1 43 22.9 0.902
18:28 1025 30.27 854 25.22 22.3 72.2 34 5.7 42.3 22.92 0.902
18:29 1025 30.27 854 25.22 22.3 72.2 24 1.2 34.2 22.89 0.901
18:30 1025 30.27 854 25.22 22.3 72.1 31 4.7 40.5 22.79 0.897
18:31 1025 30.27 854 25.22 22.2 72 24 1 33.9 22.77 0.896
18:32 1025 30.27 854 25.22 22.2 71.9 32 4.8 40.6 22.7 0.894
18:33 1025 30.27 854 25.22 22.2 72 36 6.5 43.8 22.76 0.896
18:34 1025 30.27 854 25.22 22.4 72.2 32 4.9 40.8 22.89 0.901
18:35 1025 30.27 854 25.22 22.4 72.3 35 6.3 43.4 22.97 0.904
18:36 1025 30.27 854 25.22 22.4 72.3 32 5.2 41.4 22.94 0.903
18:37 1025 30.27 854 25.22 22.3 72.1 30 3.9 39 22.85 0.9
18:38 1025 30.27 854 25.22 22.2 72 31 4.5 40 22.74 0.895
18:39 1025 30.27 854 25.22 22.2 71.9 37 6.9 44.3 22.65 0.892
18:40 1025 30.27 854 25.22 22.1 71.7 34 5.8 42.4 22.57 0.889
18:41 1025 30.27 854 25.22 22 71.5 31 4.2 39.6 22.44 0.883
18:42 1025 30.27 854 25.22 21.9 71.4 36 6.1 43.1 22.37 0.881
18:43 1025 30.27 854 25.22 21.8 71.3 33 5 41.1 22.32 0.879
18:44 1025 30.27 854 25.22 21.8 71.2 28 2.7 36.9 22.3 0.878
18:45 1025 30.27 854 25.22 21.8 71.2 32 4.4 39.9 22.32 0.879
18:46 1025 30.27 854 25.22 21.8 71.3 32 4.7 40.5 22.32 0.879
18:47 1025 30.27 854 25.22 21.9 71.4 30 3.6 38.5 22.35 0.88
18:48 1025 30.27 854 25.22 21.9 71.5 28 2.6 36.7 22.38 0.881
18:49 1025 30.27 854 25.22 22 71.6 33 5.1 41.3 22.47 0.885
18:50 1025 30.27 854 25.22 22 71.6 32 4.8 40.7 22.52 0.887
18:51 1025 30.27 854 25.22 22 71.6 32 4.8 40.7 22.49 0.885
18:52 1025 30.27 854 25.22 21.9 71.4 37 6.7 44.1 22.43 0.883
18:53 1025 30.27 854 25.22 21.8 71.3 33 5.2 41.3 22.32 0.879
18:54 1025 30.27 854 25.22 21.8 71.2 29 3.3 37.9 22.31 0.878
18:55 1025 30.27 854 25.22 21.7 71.1 31 4.2 39.5 22.26 0.876
18:56 1025 30.27 854 25.22 21.7 71.1 33 4.9 40.9 22.19 0.874
18:57 1025 30.27 854 25.22 21.7 71 32 4.5 40 22.13 0.871
18:58 1025 30.27 854 25.22 21.6 70.9 33 5 41 22.08 0.869
18:59 1025 30.27 854 25.22 21.5 70.8 33 4.6 40.3 22.04 0.868
19:00 1025 30.27 854 25.22 21.5 70.8 35 5.4 41.8 21.99 0.866
19:01 1025 30.27 854 25.22 21.5 70.6 35 5.6 42 21.91 0.863
19:02 1025 30.27 854 25.22 21.4 70.5 35 5.4 41.7 21.86 0.861
19:03 1025 30.27 854 25.22 21.4 70.4 33 4.8 40.6 21.85 0.86
19:04 1025 30.27 854 25.22 21.4 70.4 36 5.7 42.2 21.85 0.86
19:05 1025 30.27 854 25.22 21.4 70.5 33 4.8 40.7 21.86 0.861
19:06 1025 30.27 854 25.22 21.4 70.4 32 4.4 39.8 21.86 0.861
19:07 1025 30.27 854 25.22 21.4 70.6 37 6.3 43.3 21.88 0.861
19:08 1025 30.27 854 25.22 21.4 70.5 33 4.5 40.1 21.91 0.863
19:09 1025 30.27 854 25.22 21.4 70.6 36 5.8 42.4 21.92 0.863
19:10 1025 30.27 854 25.22 21.4 70.6 37 6.3 43.3 21.96 0.865
19:11 1025 30.27 854 25.22 21.4 70.6 35 5.6 42.1 21.93 0.863
19:12 1025 30.27 854 25.22 21.4 70.5 29 2.7 36.8 21.87 0.861
19:13 1025 30.27 854 25.22 21.5 70.7 35 5.8 42.4 21.94 0.864
19:14 1025 30.27 854 25.22 21.5 70.7 35 5.4 41.8 21.97 0.865
19:15 1025 30.27 854 25.22 21.5 70.8 35 5.6 42 22.01 0.867
19:16 1025 30.27 854 25.22 21.6 70.9 37 6.3 43.4 22.09 0.87
19:17 1025 30.27 854 25.22 21.6 70.9 38 7.1 44.7 22.15 0.872
19:18 1025 30.27 854 25.22 21.7 71 33 4.8 40.7 22.22 0.875
19:19 1025 30.27 854 25.22 21.7 71.1 33 5 41 22.27 0.877
19:20 1025 30.27 854 25.22 21.7 71.1 34 5.4 41.7 22.31 0.878
19:21 1025 30.27 854 25.22 21.8 71.2 36 6.1 42.9 22.3 0.878
19:22 1025 30.27 854 25.22 21.8 71.2 37 6.7 44.1 22.32 0.879
19:23 1025 30.27 854 25.22 21.7 71.1 35 5.7 42.3 22.33 0.879
19:24 1025 30.27 854 25.22 21.7 71.1 34 5.2 41.4 22.29 0.878
19:25 1025 30.27 854 25.22 21.6 70.9 34 5.4 41.8 22.31 0.878
19:26 1025 30.27 854 25.22 21.6 70.8 35 5.8 42.4 22.21 0.874
19:27 1025 30.27 854 25.22 21.5 70.6 37 6.5 43.7 22.05 0.868
19:28 1025 30.27 854 25.22 21.3 70.3 39 6.9 44.4 21.9 0.862
19:29 1025 30.27 854 25.22 21.2 70.1 39 6.9 44.5 21.67 0.853
19:30 1025 30.27 854 25.22 21 69.7 42 7.6 45.7 21.55 0.848
19:31 1025 30.27 854 25.22 20.8 69.5 42 7.6 45.6 21.36 0.841
19:32 1025 30.27 854 25.22 20.7 69.3 43 7.7 45.9 21.23 0.836
19:33 1025 30.27 854 25.22 20.7 69.2 44 8.2 46.8 21.18 0.834
19:34 1025 30.27 854 25.22 20.6 69 47 8.9 48 21.1 0.831
19:35 1025 30.27 854 25.22 20.4 68.7 46 8.5 47.3 20.92 0.824
19:36 1025 30.27 854 25.22 20.2 68.4 45 8.1 46.7 20.76 0.817
19:37 1025 30.27 854 25.22 20.2 68.3 48 9.1 48.3 20.67 0.814
19:38 1025 30.27 854 25.22 20.1 68.1 50 9.3 48.8 20.58 0.81
19:39 1025 30.27 854 25.22 19.9 67.9 48 8.8 47.9 20.44 0.805
19:40 1025 30.27 854 25.22 19.9 67.7 50 9.2 48.6 20.35 0.801
19:41 1025 30.27 854 25.22 19.8 67.7 50 9.1 48.4 20.27 0.798
19:42 1025 30.27 854 25.22 19.8 67.6 49 9 48.2 20.22 0.796
19:43 1025 30.27 854 25.22 19.7 67.4 48 8.6 47.5 20.14 0.793
19:44 1025 30.27 854 25.22 19.6 67.2 47 8 46.4 20 0.787
19:45 1025 30.27 854 25.22 19.4 66.9 47 7.8 46.1 19.88 0.783
19:46 1025 30.27 854 25.22 19.3 66.8 47 8 46.4 19.77 0.778
19:47 1025 30.27 854 25.22 19.2 66.6 48 8 46.4 19.66 0.774
19:48 1025 30.27 854 25.22 19.1 66.4 48 7.9 46.3 19.53 0.769
19:49 1025 30.27 854 25.22 19 66.3 49 8.3 47 19.49 0.767
19:50 1025 30.27 854 25.22 18.9 66.1 50 8.5 47.3 19.39 0.763
19:51 1025 30.27 854 25.22 18.9 65.9 50 8.3 47 19.32 0.761
19:52 1025 30.27 854 25.22 18.8 65.8 51 8.6 47.5 19.22 0.757
19:53 1025 30.27 854 25.22 18.7 65.7 50 8.3 46.9 19.16 0.754
19:54 1025 30.27 854 25.22 18.7 65.6 51 8.4 47.2 19.05 0.75
19:55 1025 30.27 854 25.22 18.6 65.5 53 8.9 48 19.01 0.748
19:56 1025 30.27 854 25.22 18.5 65.3 54 9.2 48.6 18.99 0.748
19:57 1025 30.27 854 25.22 18.5 65.2 53 8.9 47.9 18.84 0.742
19:58 1025 30.27 854 25.22 18.4 65 51 8.3 46.9 18.74 0.738
19:59 1025 30.27 854 25.22 18.3 65 52 8.3 47 18.7 0.736
20:00 1025 30.27 854 25.22 18.4 65.1 52 8.4 47.1 18.71 0.737
20:01 1025 30.27 854 25.22 18.4 65 52 8.4 47.2 18.73 0.737
20:02 1025 30.27 854 25.22 18.3 64.9 52 8.3 46.9 18.68 0.735
20:03 1025 30.27 854 25.22 18.2 64.8 52 8.2 46.8 18.6 0.732
20:04 1025 30.27 854 25.22 18.3 64.9 53 8.6 47.5 18.6 0.732
20:05 1025 30.27 854 25.22 18.1 64.7 53 8.6 47.4 18.52 0.729
20:06 1025 30.27 854 25.22 18 64.4 54 8.8 47.8 18.37 0.723
20:07 1025 30.27 854 25.22 17.9 64.1 55 8.8 47.8 18.19 0.716
20:08 1025 30.27 854 25.22 17.7 63.8 55 8.5 47.4 18.04 0.71
20:09 1025 30.27 854 25.22 17.6 63.7 54 8.3 46.9 17.95 0.707
20:10 1025 30.27 854 25.22 17.6 63.7 55 8.5 47.3 17.9 0.705
20:11 1025 30.27 854 25.22 17.5 63.5 55 8.5 47.2 17.85 0.703
20:12 1025 30.27 854 25.22 17.5 63.5 54 8.3 46.9 17.77 0.7
20:13 1025 30.27 854 25.22 17.5 63.5 55 8.3 47 17.79 0.7
20:14 1025 30.27 854 25.22 17.4 63.4 55 8.4 47 17.75 0.699
20:15 1025 30.27 854 25.22 17.3 63.2 54 8.1 46.6 17.63 0.694
20:16 1025 30.27 854 25.22 17.3 63.1 56 8.4 47.1 17.57 0.692
20:17 1025 30.27 854 25.22 17.2 63 54 8 46.4 17.45 0.687
20:18 1025 30.27 854 25.22 17.2 62.9 53 7.7 45.8 17.42 0.686
20:19 1025 30.27 854 25.22 17.2 62.9 51 7.1 44.8 17.39 0.685
20:20 1025 30.27 854 25.22 17.2 63 51 7 44.7 17.47 0.688
20:21 1025 30.27 854 25.22 17.3 63.1 51 7.1 44.8 17.53 0.69
20:22 1025 30.27 854 25.22 17.3 63.2 51 7.1 44.8 17.54 0.691
20:23 1025 30.27 854 25.22 17.3 63.2 51 7.1 44.7 17.58 0.692
20:24 1025 30.27 854 25.22 17.3 63.2 51 7.4 45.2 17.63 0.694
20:25 1025 30.27 854 25.22 17.2 63 53 7.7 45.9 17.5 0.689
20:26 1025 30.27 854 25.22 17 62.7 54 7.9 46.2 17.37 0.684
20:27 1025 30.27 854 25.22 16.8 62.2 54 7.6 45.7 17.06 0.672
20:28 1025 30.27 854 25.22 16.6 61.9 55 7.7 45.9 16.94 0.667
20:29 1025 30.27 854 25.22 16.5 61.7 56 7.7 45.9 16.82 0.662
20:30 1025 30.27 854 25.22 16.4 61.6 57 8 46.4 16.74 0.659
20:31 1025 30.27 854 25.22 16.3 61.4 57 7.8 46 16.57 0.652
20:32 1025 30.27 854 25.22 16.3 61.3 57 7.7 45.9 16.52 0.65
20:33 1025 30.27 854 25.22 16.2 61.1 57 7.7 45.8 16.43 0.647
20:34 1025 30.27 854 25.22 16 60.8 59 8 46.4 16.24 0.639
20:35 1025 30.27 854 25.22 15.9 60.6 57 7.5 45.5 16.1 0.634
20:36 1025 30.27 854 25.22 15.9 60.7 57 7.5 45.6 16.1 0.634
20:37 1025 30.27 854 25.22 15.8 60.5 59 7.8 46.1 16.03 0.631
20:38 1025 30.27 854 25.22 15.6 60 62 8.4 47.1 15.79 0.622
20:39 1025 30.27 854 25.22 15 59.1 65 8.6 47.5 15.3 0.602
20:40 1025 30.27 854 25.22 14.4 58 67 8.5 47.2 14.72 0.58
20:41 1025 30.27 854 25.22 13.7 56.7 69 8.2 46.8 14.07 0.554
20:42 1025 30.27 854 25.22 13.3 55.9 71 8.2 46.8 13.66 0.538
20:43 1025 30.27 854 25.22 13 55.3 70 7.7 45.9 13.38 0.527
20:44 1025 30.27 854 25.22 13 55.3 70 7.6 45.7 13.23 0.521
20:45 1025 30.27 854 25.22 13 55.4 70 7.8 46 13.3 0.524
20:46 1025 30.27 854 25.22 13 55.4 72 8.1 46.6 13.26 0.522
20:47 1025 30.27 854 25.22 12.9 55.2 73 8.2 46.7 13.2 0.52
20:48 1025 30.27 854 25.22 12.7 54.8 73 8 46.4 12.99 0.511
20:49 1025 30.27 854 25.22 12.5 54.6 72 7.7 45.9 12.9 0.508
20:50 1025 30.27 854 25.22 12.6 54.6 72 7.7 45.8 12.88 0.507
20:51 1025 30.27 855 25.25 12.6 54.7 72 7.8 46 12.94 0.509
20:52 1025 30.27 854 25.22 12.6 54.6 73 7.9 46.3 12.91 0.508
20:53 1025 30.27 855 25.25 12.5 54.4 74 7.9 46.3 12.81 0.504
20:54 1025 30.27 855 25.25 12.3 54.2 75 7.9 46.3 12.72 0.501
20:55 1025 30.27 855 25.25 12.2 53.9 75 7.9 46.3 12.62 0.497
20:56 1025 30.27 855 25.25 12.1 53.7 76 7.9 46.3 12.48 0.491
20:57 1025 30.27 855 25.25 11.9 53.5 76 7.8 46.1 12.33 0.485
20:58 1025 30.27 855 25.25 11.8 53.2 75 7.6 45.7 12.17 0.479
20:59 1025 30.27 855 25.25 11.8 53.2 75 7.5 45.5 12.14 0.478
21:00 1025 30.27 855 25.25 11.8 53.3 75 7.6 45.8 12.19 0.48
21:01 1025 30.27 855 25.25 11.8 53.2 74 7.4 45.4 12.16 0.479
21:02 1025 30.27 855 25.25 11.9 53.4 73 7.3 45.2 12.22 0.481
21:03 1025 30.27 855 25.25 12.1 53.7 73 7.3 45.2 12.38 0.487
21:04 1025 30.27 855 25.25 12.1 53.9 73 7.4 45.3 12.44 0.49
21:05 1025 30.27 855 25.25 12.1 53.7 74 7.5 45.6 12.44 0.49
21:06 1025 30.27 855 25.25 11.9 53.4 74 7.4 45.4 12.26 0.483
21:07 1025 30.27 855 25.25 11.7 53.1 74 7.3 45.2 12.06 0.475
21:08 1025 30.27 855 25.25 11.6 52.9 74 7.3 45.1 11.96 0.471
21:09 1025 30.27 855 25.25 11.7 53 74 7.1 44.8 12.03 0.474
21:10 1025 30.27 855 25.25 11.9 53.4 73 7.2 45 12.22 0.481
21:11 1025 30.27 855 25.25 12 53.6 73 7.4 45.3 12.34 0.486
21:12 1025 30.27 855 25.25 12 53.5 74 7.6 45.6 12.31 0.485
21:13 1025 30.27 855 25.25 11.8 53.2 75 7.5 45.6 12.16 0.479
21:14 1025 30.27 855 25.25 11.6 52.9 76 7.5 45.5 12 0.472
21:15 1025 30.27 855 25.25 11.5 52.8 76 7.4 45.4 11.89 0.468
21:16 1025 30.27 855 25.25 11.5 52.6 76 7.5 45.5 11.85 0.467
21:17 1025 30.27 855 25.25 11.3 52.4 78 7.6 45.6 11.69 0.46
21:18 1025 30.27 855 25.25 11.1 52 79 7.6 45.6 11.5 0.453
21:19 1025 30.27 855 25.25 10.9 51.6 79 7.5 45.4 11.32 0.446
21:20 1025 30.27 855 25.25 10.7 51.3 79 7.3 45.2 11.12 0.438
21:21 1025 30.27 855 25.25 10.7 51.3 79 7.2 45 11.09 0.437
21:22 1025 30.27 855 25.25 10.8 51.4 78 7.1 44.8 11.14 0.439
21:23 1025 30.27 855 25.25 10.8 51.4 78 7.1 44.8 11.15 0.439
21:24 1025 30.27 855 25.25 10.8 51.5 77 7 44.5 11.18 0.44
21:25 1025 30.27 855 25.25 11 51.8 76 7 44.6 11.29 0.444
21:26 1025 30.27 855 25.25 11.1 52 76 7.1 44.8 11.42 0.45
21:27 1026 30.3 855 25.25 11.2 52.2 75 7 44.7 11.54 0.454
21:28 1025 30.27 855 25.25 11.3 52.3 75 6.9 44.5 11.61 0.457
21:29 1026 30.3 855 25.25 11.3 52.4 73 6.7 44.1 11.62 0.457
21:30 1026 30.3 855 25.25 11.5 52.7 72 6.6 44 11.8 0.465
21:31 1026 30.3 855 25.25 11.7 53 71 6.6 43.9 11.96 0.471
21:32 1026 30.3 855 25.25 11.8 53.2 71 6.7 44 12.08 0.476
21:33 1026 30.3 855 25.25 11.8 53.2 71 6.7 44.1 12.12 0.477
21:34 1026 30.3 855 25.25 11.8 53.3 71 6.8 44.2 12.13 0.478
21:35 1026 30.3 855 25.25 11.9 53.4 71 6.8 44.3 12.18 0.48
21:36 1026 30.3 855 25.25 11.8 53.3 72 6.9 44.5 12.2 0.48
21:37 1026 30.3 855 25.25 11.7 53.1 72 6.9 44.5 12.04 0.474
21:38 1026 30.3 855 25.25 11.7 53 73 7 44.5 12.01 0.473
21:39 1026 30.3 855 25.25 11.6 52.8 74 7.1 44.7 11.97 0.471
21:40 1026 30.3 855 25.25 11.5 52.7 74 7.1 44.8 11.85 0.467
21:41 1026 30.3 855 25.25 11.3 52.4 75 7.1 44.7 11.75 0.463
21:42 1026 30.3 855 25.25 11.3 52.3 75 7 44.7 11.72 0.461
21:43 1026 30.3 855 25.25 11.2 52.2 76 7.1 44.8 11.62 0.457
21:44 1026 30.3 855 25.25 11.2 52.1 76 7.1 44.9 11.52 0.454
21:45 1026 30.3 855 25.25 11.1 51.9 76 7.1 44.7 11.44 0.45
21:46 1026 30.3 855 25.25 11 51.9 76 7 44.6 11.41 0.449
21:47 1026 30.3 855 25.25 11 51.8 76 7 44.6 11.36 0.447
21:48 1026 30.3 855 25.25 11 51.8 76 7 44.5 11.38 0.448
21:49 1026 30.3 855 25.25 11 51.8 76 7 44.5 11.42 0.45
21:50 1026 30.3 855 25.25 11.1 51.9 75 6.8 44.3 11.43 0.45
21:51 1026 30.3 855 25.25 11.2 52.1 75 6.9 44.4 11.52 0.454
21:52 1026 30.3 855 25.25 11.2 52.1 75 6.9 44.4 11.55 0.455
21:53 1026 30.3 855 25.25 11.2 52.2 75 6.9 44.4 11.55 0.455
21:54 1026 30.3 855 25.25 11.2 52.2 75 6.9 44.5 11.57 0.456
21:55 1026 30.3 855 25.25 11.2 52.2 75 7 44.5 11.57 0.456
21:56 1026 30.3 855 25.25 11.1 52 75 7 44.5 11.48 0.452
21:57 1026 30.3 855 25.25 11 51.8 76 7 44.6 11.37 0.448
21:58 1026 30.3 855 25.25 10.8 51.4 77 6.9 44.5 11.2 0.441
21:59 1026 30.3 855 25.25 10.6 51.1 77 6.8 44.3 11.02 0.434
22:00 1026 30.3 855 25.25 10.5 50.9 78 6.8 44.2 10.9 0.429
22:01 1026 30.3 855 25.25 10.4 50.7 78 6.7 44.1 10.79 0.425
22:02 1026 30.3 855 25.25 10.3 50.6 78 6.6 43.9 10.73 0.422
22:03 1026 30.3 855 25.25 10.3 50.5 77 6.5 43.8 10.72 0.422
22:04 1026 30.3 855 25.25 10.3 50.6 77 6.5 43.7 10.71 0.422
22:05 1026 30.3 855 25.25 10.4 50.7 77 6.5 43.8 10.73 0.422
22:06 1026 30.3 855 25.25 10.4 50.8 77 6.5 43.7 10.81 0.426
22:07 1026 30.3 855 25.25 10.6 51 76 6.5 43.7 10.9 0.429
22:08 1026 30.3 855 25.25 10.7 51.3 75 6.4 43.6 11.07 0.436
22:09 1026 30.3 855 25.25 11 51.8 73 6.3 43.3 11.32 0.446
22:10 1026 30.3 855 25.25 11.4 52.6 68 5.8 42.5 11.66 0.459
22:11 1026 30.3 855 25.25 12.2 53.9 65 5.8 42.4 12.31 0.485
22:12 1026 30.3 855 25.25 12.8 55.1 63 6 42.8 12.97 0.511
22:13 1026 30.3 855 25.25 13.2 55.7 62 6.1 42.9 13.35 0.526
22:14 1026 30.3 855 25.25 13.5 56.2 61 6.1 42.9 13.68 0.539
22:15 1026 30.3 855 25.25 13.7 56.7 60 6.1 43 13.89 0.547
22:16 1026 30.3 855 25.25 13.8 56.9 59 6 42.9 14.08 0.554
22:17 1026 30.3 855 25.25 14 57.3 58 6 42.7 14.24 0.561
22:18 1026 30.3 855 25.25 14.2 57.5 59 6.3 43.3 14.45 0.569
22:19 1026 30.3 855 25.25 14.2 57.5 59 6.4 43.5 14.44 0.569
22:20 1026 30.3 855 25.25 14.2 57.5 59 6.3 43.4 14.45 0.569
22:21 1026 30.3 855 25.25 14.1 57.4 60 6.4 43.6 14.37 0.566
22:22 1026 30.3 855 25.25 14 57.2 60 6.4 43.5 14.27 0.562
22:23 1026 30.3 855 25.25 13.9 57 60 6.4 43.5 14.26 0.561
22:24 1026 30.3 855 25.25 14 57.1 59 6.2 43.2 14.27 0.562
22:25 1026 30.3 855 25.25 13.9 57.1 60 6.3 43.4 14.27 0.562
22:26 1026 30.3 855 25.25 13.9 57.1 60 6.3 43.3 14.29 0.563
22:27 1026 30.3 855 25.25 13.9 57.1 61 6.6 43.8 14.23 0.56
22:28 1026 30.3 855 25.25 13.8 56.8 62 6.6 43.8 14.16 0.557
22:29 1026 30.3 855 25.25 13.8 56.8 61 6.5 43.7 14.09 0.555
22:30 1026 30.3 855 25.25 13.7 56.7 61 6.5 43.7 14.06 0.554
22:31 1026 30.3 855 25.25 13.7 56.7 61 6.4 43.5 14.05 0.553
22:32 1026 30.3 855 25.25 13.7 56.7 61 6.4 43.6 14.06 0.554
22:33 1026 30.3 855 25.25 13.7 56.7 61 6.5 43.7 14.1 0.555
22:34 1026 30.3 855 25.25 13.7 56.7 62 6.5 43.8 14.11 0.556
22:35 1026 30.3 855 25.25 13.7 56.7 62 6.7 44.1 14.05 0.553
22:36 1026 30.3 855 25.25 13.7 56.7 63 6.8 44.2 14.01 0.552
22:37 1026 30.3 855 25.25 13.6 56.5 63 6.7 44 13.99 0.551
22:38 1026 30.3 855 25.25 13.5 56.4 63 6.6 43.9 13.92 0.548
22:39 1026 30.3 855 25.25 13.6 56.4 63 6.6 43.9 13.96 0.55
22:40 1026 30.3 855 25.25 13.6 56.5 62 6.6 43.9 13.98 0.55
22:41 1026 30.3 855 25.25 13.7 56.6 63 6.8 44.2 14.02 0.552
22:42 1026 30.3 855 25.25 13.6 56.6 63 6.7 44.1 14.02 0.552
22:43 1026 30.3 855 25.25 13.7 56.6 63 6.8 44.3 14.01 0.552
22:44 1026 30.3 855 25.25 13.7 56.7 63 6.8 44.2 14.08 0.554
22:45 1026 30.3 855 25.25 13.8 56.8 63 6.9 44.4 14.17 0.558
22:46 1026 30.3 855 25.25 13.9 56.9 63 6.9 44.5 14.2 0.559
22:47 1026 30.3 855 25.25 14 57.1 63 7.1 44.8 14.29 0.563
22:48 1026 30.3 855 25.25 14 57.2 62 6.9 44.4 14.37 0.566
22:49 1026 30.3 855 25.25 14.2 57.6 61 7 44.5 14.54 0.572
22:50 1026 30.3 855 25.25 14.4 58 61 7.2 44.9 14.74 0.58
22:51 1026 30.3 855 25.25 14.5 58.1 62 7.3 45.1 14.84 0.584
22:52 1026 30.3 855 25.25 14.5 58.1 61 7.2 44.9 14.83 0.584
22:53 1026 30.3 855 25.25 14.5 58.1 61 7 44.7 14.84 0.584
22:54 1026 30.3 855 25.25 14.6 58.3 60 7.1 44.8 14.97 0.589
22:55 1026 30.3 855 25.25 14.7 58.5 61 7.4 45.3 15.09 0.594
22:56 1026 30.3 855 25.25 14.8 58.6 60 7.1 44.8 15.12 0.595
22:57 1026 30.3 855 25.25 14.9 58.8 60 7.3 45.2 15.22 0.599
22:58 1026 30.3 855 25.25 14.9 58.8 60 7.4 45.3 15.26 0.601
22:59 1026 30.3 855 25.25 15 58.9 60 7.4 45.2 15.35 0.604
23:00 1026 30.3 855 25.25 15.1 59.1 59 7.2 45 15.45 0.608
23:01 1026 30.3 855 25.25 15.1 59.3 60 7.4 45.4 15.47 0.609
23:02 1026 30.3 855 25.25 15.1 59.2 59 7.3 45.1 15.52 0.611
23:03 1026 30.3 855 25.25 15.2 59.3 59 7.4 45.3 15.58 0.613
23:04 1026 30.3 855 25.25 15.3 59.5 59 7.3 45.1 15.58 0.613
23:05 1026 30.3 855 25.25 15.3 59.5 58 7.2 45 15.69 0.618
23:06 1026 30.3 855 25.25 15.4 59.6 58 7.2 44.9 15.73 0.619
23:07 1026 30.3 855 25.25 15.4 59.7 59 7.4 45.3 15.69 0.618
23:08 1026 30.3 855 25.25 15.3 59.6 59 7.4 45.3 15.66 0.617
23:09 1026 30.3 855 25.25 15.2 59.4 58 7.1 44.9 15.6 0.614
23:10 1026 30.3 855 25.25 15.3 59.5 59 7.3 45.1 15.63 0.615
23:11 1026 30.3 855 25.25 15.3 59.5 58 7.2 45 15.63 0.615
23:12 1026 30.3 855 25.25 15.3 59.5 58 7.3 45.1 15.62 0.615
23:13 1026 30.3 855 25.25 15.3 59.6 57 7 44.7 15.7 0.618
23:14 1026 30.3 855 25.25 15.4 59.7 58 7.3 45.1 15.76 0.62
23:15 1026 30.3 855 25.25 15.3 59.5 59 7.3 45.2 15.63 0.615
23:16 1026 30.3 855 25.25 15.1 59.2 59 7.2 45 15.5 0.61
23:17 1026 30.3 855 25.25 15.1 59.2 59 7.2 45 15.48 0.609
23:18 1026 30.3 855 25.25 15.2 59.3 58 7.2 44.9 15.54 0.612
23:19 1026 30.3 855 25.25 15.2 59.4 58 7.1 44.8 15.58 0.613
23:20 1026 30.3 855 25.25 15.2 59.4 59 7.3 45.2 15.52 0.611
23:21 1026 30.3 855 25.25 15.1 59.1 59 7.2 45 15.43 0.607
23:22 1026 30.3 855 25.25 15.1 59.2 59 7.2 44.9 15.47 0.609
23:23 1026 30.3 855 25.25 15.1 59.1 59 7.2 45 15.44 0.608
23:24 1026 30.3 855 25.25 15 59 59 7.2 44.9 15.42 0.607
23:25 1026 30.3 855 25.25 15.1 59.1 59 7.2 45 15.44 0.608
23:26 1026 30.3 855 25.25 15 59 59 7.2 45 15.37 0.605
23:27 1026 30.3 855 25.25 15 58.9 60 7.3 45.1 15.28 0.602
23:28 1026 30.3 855 25.25 14.9 58.8 60 7.2 45 15.26 0.601
23:29 1026 30.3 855 25.25 14.9 58.8 60 7.2 45 15.22 0.599
23:30 1026 30.3 855 25.25 14.9 58.7 60 7.2 45 15.22 0.599
23:31 1026 30.3 855 25.25 14.8 58.7 60 7.2 45 15.14 0.596
23:32 1026 30.3 855 25.25 14.7 58.5 60 7 44.7 15.13 0.596
23:33 1026 30.3 855 25.25 14.8 58.6 60 7.1 44.8 15.13 0.596
23:34 1026 30.3 855 25.25 14.9 58.7 59 7.1 44.8 15.19 0.598
23:35 1026 30.3 855 25.25 14.8 58.7 60 7.1 44.9 15.17 0.597
23:36 1026 30.3 855 25.25 14.8 58.6 60 7.2 45 15.13 0.596
23:37 1026 30.3 855 25.25 14.7 58.5 60 7.2 44.9 15.05 0.593
23:38 1026 30.3 855 25.25 14.6 58.3 60 7.1 44.8 15 0.591
23:39 1026 30.3 855 25.25 14.6 58.3 61 7.2 45 14.96 0.589
23:40 1026 30.3 855 25.25 14.5 58.1 61 7.1 44.8 14.88 0.586
23:41 1026 30.3 855 25.25 14.6 58.2 61 7.2 44.9 14.93 0.588
23:42 1026 30.3 855 25.25 14.6 58.3 61 7.2 45 14.96 0.589
23:43 1026 30.3 855 25.25 14.6 58.2 61 7.1 44.8 14.93 0.588
23:44 1026 30.3 855 25.25 14.5 58.1 61 7.2 45 14.88 0.586
23:45 1026 30.3 855 25.25 14.5 58.1 61 7.2 44.9 14.84 0.584
23:46 1026 30.3 855 25.25 14.5 58.1 61 7.2 44.9 14.86 0.585
23:47 1026 30.3 855 25.25 14.5 58 61 7 44.7 14.87 0.585
23:48 1026 30.3 855 25.25 14.5 58.1 61 7.2 45 14.88 0.586
23:49 1026 30.3 855 25.25 14.5 58 62 7.3 45.1 14.79 0.582
23:50 1026 30.3 855 25.25 14.4 57.9 61 7 44.5 14.78 0.582
23:51 1026 30.3 855 25.25 14.6 58.2 61 7.1 44.8 14.89 0.586
23:52 1026 30.3 855 25.25 14.5 58.1 61 7.2 44.9 14.85 0.585
23:53 1026 30.3 855 25.25 14.5 58 61 7.1 44.8 14.82 0.583
23:54 1026 30.3 855 25.25 14.4 57.9 62 7.2 44.9 14.76 0.581
23:55 1026 30.3 855 25.25 14.4 57.9 61 7.1 44.7 14.75 0.581
23:56 1026 30.3 855 25.25 14.4 57.8 61 7 44.6 14.71 0.579
23:57 1026 30.3 855 25.25 14.4 57.9 61 7.1 44.8 14.76 0.581
23:58 1026 30.3 855 25.25 14.4 57.9 61 7 44.6 14.78 0.582
23:59 1026 30.3 855 25.25 14.4 58 61 7.1 44.7 14.74 0.58
24:00 1026 30.3 855 25.25 14.4 57.8 61 7 44.6 14.72 0.58